<?xml version="1.0" encoding="UTF-8" standalone="no" ?>
<gpx xmlns="http://www.topografix.com/GPX/1/1" xmlns:xsi="http://www.w3.org/2001/XMLSchema-instance" xsi:schemaLocation="http://www.topografix.com/GPX/1/1 http://www.topografix.com/GPX/1/1/gpx.xsd" version="1.1" creator="VisuGPX - https://www.visugpx.com">
  <metadata>
    <name>Mornant 1</name>
  </metadata>
  <trk>
    <name><![CDATA[2021-06-26 16:01:30]]></name>
    <extensions>
      <line xmlns="http://www.topografix.com/GPX/gpx_style/0/2">
        <color>0000FF</color>
        <width>4</width>
      </line>
    </extensions>
    <trkseg>
      <trkpt lat="45.6165" lon="4.67018">
        <ele>342.94</ele>
        <time>2021-06-26T09:46:23Z</time>
      </trkpt>
      <trkpt lat="45.6165" lon="4.67018">
        <ele>342.94</ele>
        <time>2021-06-26T09:46:23Z</time>
      </trkpt>
      <trkpt lat="45.6165" lon="4.67018">
        <ele>340.8</ele>
        <time>2021-06-26T09:46:24Z</time>
      </trkpt>
      <trkpt lat="45.61651" lon="4.67018">
        <ele>338.86</ele>
        <time>2021-06-26T09:46:27Z</time>
      </trkpt>
      <trkpt lat="45.61651" lon="4.67019">
        <ele>338.55</ele>
        <time>2021-06-26T09:46:53Z</time>
      </trkpt>
      <trkpt lat="45.61636" lon="4.67042">
        <ele>339.11</ele>
        <time>2021-06-26T09:48:20Z</time>
      </trkpt>
      <trkpt lat="45.6162" lon="4.67037">
        <ele>338.48</ele>
        <time>2021-06-26T09:48:35Z</time>
      </trkpt>
      <trkpt lat="45.61615" lon="4.67033">
        <ele>338.37</ele>
        <time>2021-06-26T09:48:39Z</time>
      </trkpt>
      <trkpt lat="45.61614" lon="4.67032">
        <ele>338.34</ele>
        <time>2021-06-26T09:48:40Z</time>
      </trkpt>
      <trkpt lat="45.61613" lon="4.6703">
        <ele>338.26</ele>
        <time>2021-06-26T09:48:42Z</time>
      </trkpt>
      <trkpt lat="45.61612" lon="4.67029">
        <ele>338.24</ele>
        <time>2021-06-26T09:48:43Z</time>
      </trkpt>
      <trkpt lat="45.61597" lon="4.67017">
        <ele>337.88</ele>
        <time>2021-06-26T09:48:55Z</time>
      </trkpt>
      <trkpt lat="45.61575" lon="4.67023">
        <ele>337.7</ele>
        <time>2021-06-26T09:49:10Z</time>
      </trkpt>
      <trkpt lat="45.6156" lon="4.67014">
        <ele>337.4</ele>
        <time>2021-06-26T09:49:22Z</time>
      </trkpt>
      <trkpt lat="45.61545" lon="4.67002">
        <ele>337.08</ele>
        <time>2021-06-26T09:49:36Z</time>
      </trkpt>
      <trkpt lat="45.61531" lon="4.66998">
        <ele>336.96</ele>
        <time>2021-06-26T09:49:48Z</time>
      </trkpt>
      <trkpt lat="45.6151" lon="4.67002">
        <ele>336.39</ele>
        <time>2021-06-26T09:50:03Z</time>
      </trkpt>
      <trkpt lat="45.61498" lon="4.67009">
        <ele>336.11</ele>
        <time>2021-06-26T09:50:12Z</time>
      </trkpt>
      <trkpt lat="45.61497" lon="4.67009">
        <ele>336.11</ele>
        <time>2021-06-26T09:50:13Z</time>
      </trkpt>
      <trkpt lat="45.61493" lon="4.67009">
        <ele>336.07</ele>
        <time>2021-06-26T09:50:16Z</time>
      </trkpt>
      <trkpt lat="45.61492" lon="4.67008">
        <ele>336.02</ele>
        <time>2021-06-26T09:50:17Z</time>
      </trkpt>
      <trkpt lat="45.61479" lon="4.66993">
        <ele>335.86</ele>
        <time>2021-06-26T09:50:26Z</time>
      </trkpt>
      <trkpt lat="45.61473" lon="4.66984">
        <ele>335.88</ele>
        <time>2021-06-26T09:50:32Z</time>
      </trkpt>
      <trkpt lat="45.61472" lon="4.66983">
        <ele>335.9</ele>
        <time>2021-06-26T09:50:33Z</time>
      </trkpt>
      <trkpt lat="45.61471" lon="4.66982">
        <ele>335.93</ele>
        <time>2021-06-26T09:50:34Z</time>
      </trkpt>
      <trkpt lat="45.6147" lon="4.66981">
        <ele>335.96</ele>
        <time>2021-06-26T09:50:35Z</time>
      </trkpt>
      <trkpt lat="45.61468" lon="4.6698">
        <ele>335.97</ele>
        <time>2021-06-26T09:50:36Z</time>
      </trkpt>
      <trkpt lat="45.61466" lon="4.66977">
        <ele>336.03</ele>
        <time>2021-06-26T09:50:38Z</time>
      </trkpt>
      <trkpt lat="45.61456" lon="4.6697">
        <ele>336.3</ele>
        <time>2021-06-26T09:50:46Z</time>
      </trkpt>
      <trkpt lat="45.61455" lon="4.66969">
        <ele>336.42</ele>
        <time>2021-06-26T09:50:47Z</time>
      </trkpt>
      <trkpt lat="45.61454" lon="4.66968">
        <ele>336.47</ele>
        <time>2021-06-26T09:50:48Z</time>
      </trkpt>
      <trkpt lat="45.61453" lon="4.66967">
        <ele>336.51</ele>
        <time>2021-06-26T09:50:49Z</time>
      </trkpt>
      <trkpt lat="45.61452" lon="4.66966">
        <ele>336.56</ele>
        <time>2021-06-26T09:50:50Z</time>
      </trkpt>
      <trkpt lat="45.61443" lon="4.66957">
        <ele>337.1</ele>
        <time>2021-06-26T09:50:58Z</time>
      </trkpt>
      <trkpt lat="45.61442" lon="4.66956">
        <ele>337.19</ele>
        <time>2021-06-26T09:50:59Z</time>
      </trkpt>
      <trkpt lat="45.61437" lon="4.66955">
        <ele>337.58</ele>
        <time>2021-06-26T09:51:03Z</time>
      </trkpt>
      <trkpt lat="45.61428" lon="4.66957">
        <ele>339.17</ele>
        <time>2021-06-26T09:51:13Z</time>
      </trkpt>
      <trkpt lat="45.61413" lon="4.66957">
        <ele>339.76</ele>
        <time>2021-06-26T09:51:24Z</time>
      </trkpt>
      <trkpt lat="45.61398" lon="4.66958">
        <ele>340.75</ele>
        <time>2021-06-26T09:51:33Z</time>
      </trkpt>
      <trkpt lat="45.61381" lon="4.66962">
        <ele>342.09</ele>
        <time>2021-06-26T09:51:48Z</time>
      </trkpt>
      <trkpt lat="45.61374" lon="4.66968">
        <ele>343.18</ele>
        <time>2021-06-26T09:51:59Z</time>
      </trkpt>
      <trkpt lat="45.61359" lon="4.66972">
        <ele>344.48</ele>
        <time>2021-06-26T09:52:11Z</time>
      </trkpt>
      <trkpt lat="45.61348" lon="4.66975">
        <ele>345.32</ele>
        <time>2021-06-26T09:52:20Z</time>
      </trkpt>
      <trkpt lat="45.61345" lon="4.66976">
        <ele>345.46</ele>
        <time>2021-06-26T09:52:23Z</time>
      </trkpt>
      <trkpt lat="45.61344" lon="4.66977">
        <ele>345.51</ele>
        <time>2021-06-26T09:52:24Z</time>
      </trkpt>
      <trkpt lat="45.6133" lon="4.66975">
        <ele>346.48</ele>
        <time>2021-06-26T09:52:35Z</time>
      </trkpt>
      <trkpt lat="45.61307" lon="4.6698">
        <ele>348.27</ele>
        <time>2021-06-26T09:52:53Z</time>
      </trkpt>
      <trkpt lat="45.6129" lon="4.66981">
        <ele>348.65</ele>
        <time>2021-06-26T09:53:07Z</time>
      </trkpt>
      <trkpt lat="45.61277" lon="4.66983">
        <ele>348.87</ele>
        <time>2021-06-26T09:53:18Z</time>
      </trkpt>
      <trkpt lat="45.61271" lon="4.66983">
        <ele>349.19</ele>
        <time>2021-06-26T09:53:23Z</time>
      </trkpt>
      <trkpt lat="45.61267" lon="4.66984">
        <ele>349.36</ele>
        <time>2021-06-26T09:53:26Z</time>
      </trkpt>
      <trkpt lat="45.61266" lon="4.66984">
        <ele>349.44</ele>
        <time>2021-06-26T09:53:27Z</time>
      </trkpt>
      <trkpt lat="45.61252" lon="4.66982">
        <ele>350.69</ele>
        <time>2021-06-26T09:53:40Z</time>
      </trkpt>
      <trkpt lat="45.61237" lon="4.66974">
        <ele>352.06</ele>
        <time>2021-06-26T09:53:52Z</time>
      </trkpt>
      <trkpt lat="45.61232" lon="4.66974">
        <ele>352.51</ele>
        <time>2021-06-26T09:53:56Z</time>
      </trkpt>
      <trkpt lat="45.61218" lon="4.66972">
        <ele>353.97</ele>
        <time>2021-06-26T09:54:07Z</time>
      </trkpt>
      <trkpt lat="45.61215" lon="4.66973">
        <ele>354.3</ele>
        <time>2021-06-26T09:54:10Z</time>
      </trkpt>
      <trkpt lat="45.61196" lon="4.66974">
        <ele>355.91</ele>
        <time>2021-06-26T09:54:25Z</time>
      </trkpt>
      <trkpt lat="45.61183" lon="4.66973">
        <ele>357.38</ele>
        <time>2021-06-26T09:54:38Z</time>
      </trkpt>
      <trkpt lat="45.61176" lon="4.66973">
        <ele>357.93</ele>
        <time>2021-06-26T09:54:43Z</time>
      </trkpt>
      <trkpt lat="45.61175" lon="4.66973">
        <ele>358.03</ele>
        <time>2021-06-26T09:54:44Z</time>
      </trkpt>
      <trkpt lat="45.6117" lon="4.66974">
        <ele>358.42</ele>
        <time>2021-06-26T09:54:48Z</time>
      </trkpt>
      <trkpt lat="45.6115" lon="4.66975">
        <ele>360.31</ele>
        <time>2021-06-26T09:55:05Z</time>
      </trkpt>
      <trkpt lat="45.61149" lon="4.66975">
        <ele>360.43</ele>
        <time>2021-06-26T09:55:06Z</time>
      </trkpt>
      <trkpt lat="45.61147" lon="4.66975">
        <ele>360.56</ele>
        <time>2021-06-26T09:55:07Z</time>
      </trkpt>
      <trkpt lat="45.61128" lon="4.66973">
        <ele>362.35</ele>
        <time>2021-06-26T09:55:23Z</time>
      </trkpt>
      <trkpt lat="45.61128" lon="4.6697">
        <ele>362.8</ele>
        <time>2021-06-26T09:55:38Z</time>
      </trkpt>
      <trkpt lat="45.61128" lon="4.66968">
        <ele>362.81</ele>
        <time>2021-06-26T09:55:39Z</time>
      </trkpt>
      <trkpt lat="45.61127" lon="4.66966">
        <ele>362.82</ele>
        <time>2021-06-26T09:55:40Z</time>
      </trkpt>
      <trkpt lat="45.61107" lon="4.66946">
        <ele>363.74</ele>
        <time>2021-06-26T09:55:58Z</time>
      </trkpt>
      <trkpt lat="45.61092" lon="4.66929">
        <ele>365.53</ele>
        <time>2021-06-26T09:56:15Z</time>
      </trkpt>
      <trkpt lat="45.61088" lon="4.66928">
        <ele>365.66</ele>
        <time>2021-06-26T09:56:30Z</time>
      </trkpt>
      <trkpt lat="45.61085" lon="4.66926">
        <ele>365.6</ele>
        <time>2021-06-26T09:56:38Z</time>
      </trkpt>
      <trkpt lat="45.61084" lon="4.66924">
        <ele>365.59</ele>
        <time>2021-06-26T09:56:39Z</time>
      </trkpt>
      <trkpt lat="45.61082" lon="4.66923">
        <ele>365.58</ele>
        <time>2021-06-26T09:56:40Z</time>
      </trkpt>
      <trkpt lat="45.61081" lon="4.66922">
        <ele>365.57</ele>
        <time>2021-06-26T09:56:41Z</time>
      </trkpt>
      <trkpt lat="45.6108" lon="4.6692">
        <ele>365.57</ele>
        <time>2021-06-26T09:56:42Z</time>
      </trkpt>
      <trkpt lat="45.61063" lon="4.66901">
        <ele>366.44</ele>
        <time>2021-06-26T09:56:58Z</time>
      </trkpt>
      <trkpt lat="45.61045" lon="4.66884">
        <ele>367.25</ele>
        <time>2021-06-26T09:57:14Z</time>
      </trkpt>
      <trkpt lat="45.61028" lon="4.66863">
        <ele>368.06</ele>
        <time>2021-06-26T09:57:32Z</time>
      </trkpt>
      <trkpt lat="45.61013" lon="4.66844">
        <ele>368.77</ele>
        <time>2021-06-26T09:57:48Z</time>
      </trkpt>
      <trkpt lat="45.61001" lon="4.66828">
        <ele>369.59</ele>
        <time>2021-06-26T09:58:00Z</time>
      </trkpt>
      <trkpt lat="45.60988" lon="4.66807">
        <ele>370.23</ele>
        <time>2021-06-26T09:58:15Z</time>
      </trkpt>
      <trkpt lat="45.60976" lon="4.66792">
        <ele>371.2</ele>
        <time>2021-06-26T09:58:30Z</time>
      </trkpt>
      <trkpt lat="45.60974" lon="4.66789">
        <ele>371.31</ele>
        <time>2021-06-26T09:58:33Z</time>
      </trkpt>
      <trkpt lat="45.60973" lon="4.66787">
        <ele>371.34</ele>
        <time>2021-06-26T09:58:34Z</time>
      </trkpt>
      <trkpt lat="45.60972" lon="4.66786">
        <ele>371.35</ele>
        <time>2021-06-26T09:58:35Z</time>
      </trkpt>
      <trkpt lat="45.60959" lon="4.6677">
        <ele>371.53</ele>
        <time>2021-06-26T09:58:48Z</time>
      </trkpt>
      <trkpt lat="45.60945" lon="4.66747">
        <ele>372.23</ele>
        <time>2021-06-26T09:59:05Z</time>
      </trkpt>
      <trkpt lat="45.60929" lon="4.66724">
        <ele>372.74</ele>
        <time>2021-06-26T09:59:21Z</time>
      </trkpt>
      <trkpt lat="45.60914" lon="4.66703">
        <ele>373.47</ele>
        <time>2021-06-26T09:59:37Z</time>
      </trkpt>
      <trkpt lat="45.60901" lon="4.66682">
        <ele>374.26</ele>
        <time>2021-06-26T09:59:54Z</time>
      </trkpt>
      <trkpt lat="45.60882" lon="4.66659">
        <ele>375.28</ele>
        <time>2021-06-26T10:00:13Z</time>
      </trkpt>
      <trkpt lat="45.60866" lon="4.66636">
        <ele>375.97</ele>
        <time>2021-06-26T10:00:31Z</time>
      </trkpt>
      <trkpt lat="45.60854" lon="4.66617">
        <ele>376.73</ele>
        <time>2021-06-26T10:00:44Z</time>
      </trkpt>
      <trkpt lat="45.60836" lon="4.66602">
        <ele>376.83</ele>
        <time>2021-06-26T10:01:00Z</time>
      </trkpt>
      <trkpt lat="45.60815" lon="4.66585">
        <ele>376.89</ele>
        <time>2021-06-26T10:01:17Z</time>
      </trkpt>
      <trkpt lat="45.60801" lon="4.66574">
        <ele>377.14</ele>
        <time>2021-06-26T10:01:29Z</time>
      </trkpt>
      <trkpt lat="45.60782" lon="4.66559">
        <ele>377.65</ele>
        <time>2021-06-26T10:01:46Z</time>
      </trkpt>
      <trkpt lat="45.60764" lon="4.66544">
        <ele>378.44</ele>
        <time>2021-06-26T10:02:01Z</time>
      </trkpt>
      <trkpt lat="45.60745" lon="4.66527">
        <ele>378.77</ele>
        <time>2021-06-26T10:02:18Z</time>
      </trkpt>
      <trkpt lat="45.60745" lon="4.66527">
        <ele>375.6</ele>
      </trkpt>
      <trkpt lat="45.60742" lon="4.66523">
        <ele>375.7</ele>
      </trkpt>
      <trkpt lat="45.6073" lon="4.66515">
        <ele>375.9</ele>
      </trkpt>
      <trkpt lat="45.60727" lon="4.66506">
        <ele>376.2</ele>
      </trkpt>
      <trkpt lat="45.60688" lon="4.66495">
        <ele>375.7</ele>
      </trkpt>
      <trkpt lat="45.60676" lon="4.66489">
        <ele>375.7</ele>
      </trkpt>
      <trkpt lat="45.60614" lon="4.66446">
        <ele>375.9</ele>
      </trkpt>
      <trkpt lat="45.60576" lon="4.66418">
        <ele>376.4</ele>
      </trkpt>
      <trkpt lat="45.60552" lon="4.66399">
        <ele>375.7</ele>
      </trkpt>
      <trkpt lat="45.60529" lon="4.66385">
        <ele>375</ele>
      </trkpt>
      <trkpt lat="45.60509" lon="4.66377">
        <ele>374.3</ele>
      </trkpt>
      <trkpt lat="45.60491" lon="4.66367">
        <ele>373.9</ele>
      </trkpt>
      <trkpt lat="45.60455" lon="4.66327">
        <ele>374</ele>
      </trkpt>
      <trkpt lat="45.60417" lon="4.66305">
        <ele>373</ele>
      </trkpt>
      <trkpt lat="45.60391" lon="4.66293">
        <ele>373</ele>
      </trkpt>
      <trkpt lat="45.60366" lon="4.6628">
        <ele>373.1</ele>
      </trkpt>
      <trkpt lat="45.60341" lon="4.66263">
        <ele>373.5</ele>
      </trkpt>
      <trkpt lat="45.60327" lon="4.6626">
        <ele>373.3</ele>
      </trkpt>
      <trkpt lat="45.60322" lon="4.66261">
        <ele>373</ele>
      </trkpt>
      <trkpt lat="45.60305" lon="4.66272">
        <ele>371.9</ele>
      </trkpt>
      <trkpt lat="45.60292" lon="4.66276">
        <ele>371.4</ele>
      </trkpt>
      <trkpt lat="45.60285" lon="4.66275">
        <ele>371.2</ele>
      </trkpt>
      <trkpt lat="45.60279" lon="4.66272">
        <ele>371</ele>
      </trkpt>
      <trkpt lat="45.60218" lon="4.66212">
        <ele>365.9</ele>
      </trkpt>
      <trkpt lat="45.60214" lon="4.66208">
        <ele>365.4</ele>
      </trkpt>
      <trkpt lat="45.60196" lon="4.66156">
        <ele>362.3</ele>
      </trkpt>
      <trkpt lat="45.6018" lon="4.66082">
        <ele>359.4</ele>
      </trkpt>
      <trkpt lat="45.60166" lon="4.66006">
        <ele>356.1</ele>
      </trkpt>
      <trkpt lat="45.60163" lon="4.65997">
        <ele>355.4</ele>
      </trkpt>
      <trkpt lat="45.60159" lon="4.6599">
        <ele>354.7</ele>
      </trkpt>
      <trkpt lat="45.60158" lon="4.65981">
        <ele>354</ele>
      </trkpt>
      <trkpt lat="45.60159" lon="4.6597">
        <ele>353.5</ele>
      </trkpt>
      <trkpt lat="45.60164" lon="4.65929">
        <ele>351.6</ele>
      </trkpt>
      <trkpt lat="45.60167" lon="4.65888">
        <ele>350.4</ele>
      </trkpt>
      <trkpt lat="45.60165" lon="4.65859">
        <ele>349.6</ele>
      </trkpt>
      <trkpt lat="45.60151" lon="4.65809">
        <ele>350</ele>
      </trkpt>
      <trkpt lat="45.60147" lon="4.65801">
        <ele>350.3</ele>
      </trkpt>
      <trkpt lat="45.60126" lon="4.65776">
        <ele>351.7</ele>
      </trkpt>
      <trkpt lat="45.60108" lon="4.65759">
        <ele>352.8</ele>
      </trkpt>
      <trkpt lat="45.60061" lon="4.65708">
        <ele>355.9</ele>
      </trkpt>
      <trkpt lat="45.60053" lon="4.65701">
        <ele>356.3</ele>
      </trkpt>
      <trkpt lat="45.60017" lon="4.6568">
        <ele>357.4</ele>
      </trkpt>
      <trkpt lat="45.59972" lon="4.6565">
        <ele>358.1</ele>
      </trkpt>
      <trkpt lat="45.5996" lon="4.65639">
        <ele>358.2</ele>
      </trkpt>
      <trkpt lat="45.59933" lon="4.6562">
        <ele>358.3</ele>
      </trkpt>
      <trkpt lat="45.59887" lon="4.65592">
        <ele>357.3</ele>
      </trkpt>
      <trkpt lat="45.5977" lon="4.65533">
        <ele>357.15</ele>
        <time>2021-06-26T10:40:06Z</time>
      </trkpt>
      <trkpt lat="45.59773" lon="4.65502">
        <ele>355.62</ele>
        <time>2021-06-26T10:40:22Z</time>
      </trkpt>
      <trkpt lat="45.59766" lon="4.65476">
        <ele>355.86</ele>
        <time>2021-06-26T10:40:40Z</time>
      </trkpt>
      <trkpt lat="45.59758" lon="4.65458">
        <ele>356.2</ele>
        <time>2021-06-26T10:40:58Z</time>
      </trkpt>
      <trkpt lat="45.5976" lon="4.65442">
        <ele>356.25</ele>
        <time>2021-06-26T10:41:17Z</time>
      </trkpt>
      <trkpt lat="45.59761" lon="4.65407">
        <ele>356.89</ele>
        <time>2021-06-26T10:41:43Z</time>
      </trkpt>
      <trkpt lat="45.59762" lon="4.65402">
        <ele>357.34</ele>
        <time>2021-06-26T10:42:05Z</time>
      </trkpt>
      <trkpt lat="45.5976" lon="4.65398">
        <ele>357.45</ele>
        <time>2021-06-26T10:42:30Z</time>
      </trkpt>
      <trkpt lat="45.59757" lon="4.6539">
        <ele>357.62</ele>
        <time>2021-06-26T10:43:00Z</time>
      </trkpt>
      <trkpt lat="45.59752" lon="4.65388">
        <ele>357.58</ele>
        <time>2021-06-26T10:43:29Z</time>
      </trkpt>
      <trkpt lat="45.59766" lon="4.65349">
        <ele>357.59</ele>
        <time>2021-06-26T10:44:16Z</time>
      </trkpt>
      <trkpt lat="45.59766" lon="4.6534">
        <ele>359.77</ele>
        <time>2021-06-26T10:44:23Z</time>
      </trkpt>
      <trkpt lat="45.59765" lon="4.6534">
        <ele>359.98</ele>
        <time>2021-06-26T10:44:24Z</time>
      </trkpt>
      <trkpt lat="45.59767" lon="4.65311">
        <ele>360.68</ele>
        <time>2021-06-26T10:44:43Z</time>
      </trkpt>
      <trkpt lat="45.59765" lon="4.65271">
        <ele>362.76</ele>
        <time>2021-06-26T10:45:09Z</time>
      </trkpt>
      <trkpt lat="45.59763" lon="4.6525">
        <ele>363.53</ele>
        <time>2021-06-26T10:45:21Z</time>
      </trkpt>
      <trkpt lat="45.59761" lon="4.65244">
        <ele>363.59</ele>
        <time>2021-06-26T10:45:24Z</time>
      </trkpt>
      <trkpt lat="45.5976" lon="4.65242">
        <ele>363.64</ele>
        <time>2021-06-26T10:45:25Z</time>
      </trkpt>
      <trkpt lat="45.5976" lon="4.65234">
        <ele>364.05</ele>
        <time>2021-06-26T10:45:37Z</time>
      </trkpt>
      <trkpt lat="45.59761" lon="4.65218">
        <ele>364.24</ele>
        <time>2021-06-26T10:45:59Z</time>
      </trkpt>
      <trkpt lat="45.5976" lon="4.65182">
        <ele>365.98</ele>
        <time>2021-06-26T10:46:23Z</time>
      </trkpt>
      <trkpt lat="45.5976" lon="4.65175">
        <ele>366.39</ele>
        <time>2021-06-26T10:46:27Z</time>
      </trkpt>
      <trkpt lat="45.59755" lon="4.6514">
        <ele>367.69</ele>
        <time>2021-06-26T10:46:48Z</time>
      </trkpt>
      <trkpt lat="45.59748" lon="4.65105">
        <ele>368.49</ele>
        <time>2021-06-26T10:47:11Z</time>
      </trkpt>
      <trkpt lat="45.59749" lon="4.65101">
        <ele>368.94</ele>
        <time>2021-06-26T10:47:29Z</time>
      </trkpt>
      <trkpt lat="45.59749" lon="4.65096">
        <ele>369.07</ele>
        <time>2021-06-26T10:47:42Z</time>
      </trkpt>
      <trkpt lat="45.59713" lon="4.64989">
        <ele>371.19</ele>
        <time>2021-06-26T10:49:11Z</time>
      </trkpt>
      <trkpt lat="45.59709" lon="4.6498">
        <ele>371.89</ele>
        <time>2021-06-26T10:49:27Z</time>
      </trkpt>
      <trkpt lat="45.59705" lon="4.64974">
        <ele>371.91</ele>
        <time>2021-06-26T10:49:34Z</time>
      </trkpt>
      <trkpt lat="45.59704" lon="4.64973">
        <ele>371.91</ele>
        <time>2021-06-26T10:49:35Z</time>
      </trkpt>
      <trkpt lat="45.59692" lon="4.64954">
        <ele>373.19</ele>
        <time>2021-06-26T10:49:50Z</time>
      </trkpt>
      <trkpt lat="45.59679" lon="4.64931">
        <ele>374.7</ele>
        <time>2021-06-26T10:50:07Z</time>
      </trkpt>
      <trkpt lat="45.59667" lon="4.64912">
        <ele>375.97</ele>
        <time>2021-06-26T10:50:21Z</time>
      </trkpt>
      <trkpt lat="45.59662" lon="4.64887">
        <ele>378.08</ele>
        <time>2021-06-26T10:50:38Z</time>
      </trkpt>
      <trkpt lat="45.59655" lon="4.64882">
        <ele>379.34</ele>
        <time>2021-06-26T10:50:55Z</time>
      </trkpt>
      <trkpt lat="45.59656" lon="4.6488">
        <ele>379.91</ele>
        <time>2021-06-26T10:51:13Z</time>
      </trkpt>
      <trkpt lat="45.59656" lon="4.64835">
        <ele>382.17</ele>
        <time>2021-06-26T10:52:00Z</time>
      </trkpt>
      <trkpt lat="45.59654" lon="4.64804">
        <ele>383.19</ele>
        <time>2021-06-26T10:52:19Z</time>
      </trkpt>
      <trkpt lat="45.59651" lon="4.64788">
        <ele>383.2</ele>
        <time>2021-06-26T10:52:35Z</time>
      </trkpt>
      <trkpt lat="45.59644" lon="4.6477">
        <ele>383.4</ele>
        <time>2021-06-26T10:52:51Z</time>
      </trkpt>
      <trkpt lat="45.59643" lon="4.64767">
        <ele>383.45</ele>
        <time>2021-06-26T10:52:53Z</time>
      </trkpt>
      <trkpt lat="45.59635" lon="4.64749">
        <ele>384.24</ele>
        <time>2021-06-26T10:53:10Z</time>
      </trkpt>
      <trkpt lat="45.59632" lon="4.64739">
        <ele>384.72</ele>
        <time>2021-06-26T10:53:18Z</time>
      </trkpt>
      <trkpt lat="45.59617" lon="4.64712">
        <ele>385.57</ele>
        <time>2021-06-26T10:53:37Z</time>
      </trkpt>
      <trkpt lat="45.59605" lon="4.64691">
        <ele>386.71</ele>
        <time>2021-06-26T10:53:53Z</time>
      </trkpt>
      <trkpt lat="45.59596" lon="4.64673">
        <ele>387.79</ele>
        <time>2021-06-26T10:54:11Z</time>
      </trkpt>
      <trkpt lat="45.59586" lon="4.64651">
        <ele>388.81</ele>
        <time>2021-06-26T10:54:28Z</time>
      </trkpt>
      <trkpt lat="45.59571" lon="4.64624">
        <ele>390.02</ele>
        <time>2021-06-26T10:54:48Z</time>
      </trkpt>
      <trkpt lat="45.59565" lon="4.64615">
        <ele>390.44</ele>
        <time>2021-06-26T10:55:01Z</time>
      </trkpt>
      <trkpt lat="45.59564" lon="4.64613">
        <ele>390.44</ele>
        <time>2021-06-26T10:55:02Z</time>
      </trkpt>
      <trkpt lat="45.59564" lon="4.64612">
        <ele>390.59</ele>
        <time>2021-06-26T10:55:03Z</time>
      </trkpt>
      <trkpt lat="45.59554" lon="4.64598">
        <ele>390.72</ele>
        <time>2021-06-26T10:55:21Z</time>
      </trkpt>
      <trkpt lat="45.59554" lon="4.64596">
        <ele>390.59</ele>
        <time>2021-06-26T10:55:48Z</time>
      </trkpt>
      <trkpt lat="45.59551" lon="4.64596">
        <ele>391.14</ele>
        <time>2021-06-26T10:56:08Z</time>
      </trkpt>
      <trkpt lat="45.59509" lon="4.64515">
        <ele>391.6</ele>
        <time>2021-06-26T10:59:56Z</time>
      </trkpt>
      <trkpt lat="45.59509" lon="4.64513">
        <ele>391.6</ele>
        <time>2021-06-26T10:59:57Z</time>
      </trkpt>
      <trkpt lat="45.59507" lon="4.64509">
        <ele>388.8</ele>
        <time>2021-06-26T11:00:04Z</time>
      </trkpt>
      <trkpt lat="45.59505" lon="4.64491">
        <ele>387.67</ele>
        <time>2021-06-26T11:00:19Z</time>
      </trkpt>
      <trkpt lat="45.59505" lon="4.64485">
        <ele>387.25</ele>
        <time>2021-06-26T11:00:32Z</time>
      </trkpt>
      <trkpt lat="45.59502" lon="4.64466">
        <ele>387.13</ele>
        <time>2021-06-26T11:00:53Z</time>
      </trkpt>
      <trkpt lat="45.59504" lon="4.64448">
        <ele>387.7</ele>
        <time>2021-06-26T11:01:10Z</time>
      </trkpt>
      <trkpt lat="45.59499" lon="4.64439">
        <ele>387.2</ele>
        <time>2021-06-26T11:01:31Z</time>
      </trkpt>
      <trkpt lat="45.59499" lon="4.64434">
        <ele>387.91</ele>
        <time>2021-06-26T11:01:48Z</time>
      </trkpt>
      <trkpt lat="45.59496" lon="4.64428">
        <ele>387.73</ele>
        <time>2021-06-26T11:01:54Z</time>
      </trkpt>
      <trkpt lat="45.59496" lon="4.64426">
        <ele>387.71</ele>
        <time>2021-06-26T11:01:55Z</time>
      </trkpt>
      <trkpt lat="45.59496" lon="4.64424">
        <ele>387.7</ele>
        <time>2021-06-26T11:01:56Z</time>
      </trkpt>
      <trkpt lat="45.59496" lon="4.64423">
        <ele>387.7</ele>
        <time>2021-06-26T11:01:57Z</time>
      </trkpt>
      <trkpt lat="45.59496" lon="4.64421">
        <ele>387.78</ele>
        <time>2021-06-26T11:01:58Z</time>
      </trkpt>
      <trkpt lat="45.59494" lon="4.6441">
        <ele>388.39</ele>
        <time>2021-06-26T11:02:04Z</time>
      </trkpt>
      <trkpt lat="45.59494" lon="4.64408">
        <ele>388.5</ele>
        <time>2021-06-26T11:02:05Z</time>
      </trkpt>
      <trkpt lat="45.59493" lon="4.64403">
        <ele>388.77</ele>
        <time>2021-06-26T11:02:08Z</time>
      </trkpt>
      <trkpt lat="45.59492" lon="4.64402">
        <ele>388.86</ele>
        <time>2021-06-26T11:02:09Z</time>
      </trkpt>
      <trkpt lat="45.59487" lon="4.64389">
        <ele>389.84</ele>
        <time>2021-06-26T11:02:18Z</time>
      </trkpt>
      <trkpt lat="45.59485" lon="4.64373">
        <ele>391.37</ele>
        <time>2021-06-26T11:02:29Z</time>
      </trkpt>
      <trkpt lat="45.59485" lon="4.64371">
        <ele>391.52</ele>
        <time>2021-06-26T11:02:30Z</time>
      </trkpt>
      <trkpt lat="45.59482" lon="4.64359">
        <ele>392.27</ele>
        <time>2021-06-26T11:02:45Z</time>
      </trkpt>
      <trkpt lat="45.59479" lon="4.64355">
        <ele>392.53</ele>
        <time>2021-06-26T11:02:55Z</time>
      </trkpt>
      <trkpt lat="45.59478" lon="4.64353">
        <ele>392.53</ele>
        <time>2021-06-26T11:02:56Z</time>
      </trkpt>
      <trkpt lat="45.59478" lon="4.64351">
        <ele>392.51</ele>
        <time>2021-06-26T11:02:57Z</time>
      </trkpt>
      <trkpt lat="45.59478" lon="4.64349">
        <ele>392.48</ele>
        <time>2021-06-26T11:02:58Z</time>
      </trkpt>
      <trkpt lat="45.59478" lon="4.64347">
        <ele>392.43</ele>
        <time>2021-06-26T11:02:59Z</time>
      </trkpt>
      <trkpt lat="45.59478" lon="4.64346">
        <ele>392.43</ele>
        <time>2021-06-26T11:03:00Z</time>
      </trkpt>
      <trkpt lat="45.59478" lon="4.64344">
        <ele>392.42</ele>
        <time>2021-06-26T11:03:01Z</time>
      </trkpt>
      <trkpt lat="45.59476" lon="4.64334">
        <ele>392.76</ele>
        <time>2021-06-26T11:03:11Z</time>
      </trkpt>
      <trkpt lat="45.59471" lon="4.64326">
        <ele>393.29</ele>
        <time>2021-06-26T11:03:18Z</time>
      </trkpt>
      <trkpt lat="45.5947" lon="4.64325">
        <ele>393.35</ele>
        <time>2021-06-26T11:03:19Z</time>
      </trkpt>
      <trkpt lat="45.59468" lon="4.64324">
        <ele>393.39</ele>
        <time>2021-06-26T11:03:20Z</time>
      </trkpt>
      <trkpt lat="45.59467" lon="4.64323">
        <ele>393.42</ele>
        <time>2021-06-26T11:03:21Z</time>
      </trkpt>
      <trkpt lat="45.59465" lon="4.64323">
        <ele>393.48</ele>
        <time>2021-06-26T11:03:22Z</time>
      </trkpt>
      <trkpt lat="45.59459" lon="4.64319">
        <ele>393.77</ele>
        <time>2021-06-26T11:03:27Z</time>
      </trkpt>
      <trkpt lat="45.59458" lon="4.64318">
        <ele>393.85</ele>
        <time>2021-06-26T11:03:28Z</time>
      </trkpt>
      <trkpt lat="45.59456" lon="4.64308">
        <ele>394.81</ele>
        <time>2021-06-26T11:03:43Z</time>
      </trkpt>
      <trkpt lat="45.59459" lon="4.64299">
        <ele>395.61</ele>
        <time>2021-06-26T11:03:58Z</time>
      </trkpt>
      <trkpt lat="45.59461" lon="4.64297">
        <ele>395.64</ele>
        <time>2021-06-26T11:03:59Z</time>
      </trkpt>
      <trkpt lat="45.59463" lon="4.64296">
        <ele>395.73</ele>
        <time>2021-06-26T11:04:01Z</time>
      </trkpt>
      <trkpt lat="45.59463" lon="4.64293">
        <ele>395.77</ele>
        <time>2021-06-26T11:04:02Z</time>
      </trkpt>
      <trkpt lat="45.59473" lon="4.6428">
        <ele>396</ele>
        <time>2021-06-26T11:04:18Z</time>
      </trkpt>
      <trkpt lat="45.59476" lon="4.64274">
        <ele>395.91</ele>
        <time>2021-06-26T11:04:38Z</time>
      </trkpt>
      <trkpt lat="45.59477" lon="4.64273">
        <ele>395.88</ele>
        <time>2021-06-26T11:04:39Z</time>
      </trkpt>
      <trkpt lat="45.59478" lon="4.64271">
        <ele>395.86</ele>
        <time>2021-06-26T11:04:40Z</time>
      </trkpt>
      <trkpt lat="45.59479" lon="4.6427">
        <ele>395.8</ele>
        <time>2021-06-26T11:04:41Z</time>
      </trkpt>
      <trkpt lat="45.5948" lon="4.64269">
        <ele>395.77</ele>
        <time>2021-06-26T11:04:42Z</time>
      </trkpt>
      <trkpt lat="45.59481" lon="4.64267">
        <ele>395.76</ele>
        <time>2021-06-26T11:04:43Z</time>
      </trkpt>
      <trkpt lat="45.59482" lon="4.64266">
        <ele>395.75</ele>
        <time>2021-06-26T11:04:44Z</time>
      </trkpt>
      <trkpt lat="45.59483" lon="4.64264">
        <ele>395.74</ele>
        <time>2021-06-26T11:04:45Z</time>
      </trkpt>
      <trkpt lat="45.59492" lon="4.6424">
        <ele>395.26</ele>
        <time>2021-06-26T11:05:00Z</time>
      </trkpt>
      <trkpt lat="45.59502" lon="4.64221">
        <ele>395.33</ele>
        <time>2021-06-26T11:05:18Z</time>
      </trkpt>
      <trkpt lat="45.5951" lon="4.64199">
        <ele>395.17</ele>
        <time>2021-06-26T11:05:35Z</time>
      </trkpt>
      <trkpt lat="45.5951" lon="4.64198">
        <ele>395.13</ele>
        <time>2021-06-26T11:05:36Z</time>
      </trkpt>
      <trkpt lat="45.59511" lon="4.64197">
        <ele>395.08</ele>
        <time>2021-06-26T11:05:37Z</time>
      </trkpt>
      <trkpt lat="45.59511" lon="4.64195">
        <ele>395.05</ele>
        <time>2021-06-26T11:05:38Z</time>
      </trkpt>
      <trkpt lat="45.59512" lon="4.64194">
        <ele>395.02</ele>
        <time>2021-06-26T11:05:39Z</time>
      </trkpt>
      <trkpt lat="45.59512" lon="4.64192">
        <ele>395</ele>
        <time>2021-06-26T11:05:40Z</time>
      </trkpt>
      <trkpt lat="45.59515" lon="4.64184">
        <ele>394.79</ele>
        <time>2021-06-26T11:05:45Z</time>
      </trkpt>
      <trkpt lat="45.59515" lon="4.64182">
        <ele>394.74</ele>
        <time>2021-06-26T11:05:46Z</time>
      </trkpt>
      <trkpt lat="45.59518" lon="4.64179">
        <ele>394.53</ele>
        <time>2021-06-26T11:05:49Z</time>
      </trkpt>
      <trkpt lat="45.59518" lon="4.64178">
        <ele>394.4</ele>
        <time>2021-06-26T11:06:08Z</time>
      </trkpt>
      <trkpt lat="45.59517" lon="4.64173">
        <ele>394.23</ele>
        <time>2021-06-26T11:06:20Z</time>
      </trkpt>
      <trkpt lat="45.59525" lon="4.64155">
        <ele>393.82</ele>
        <time>2021-06-26T11:06:31Z</time>
      </trkpt>
      <trkpt lat="45.59529" lon="4.64141">
        <ele>393.49</ele>
        <time>2021-06-26T11:06:41Z</time>
      </trkpt>
      <trkpt lat="45.59532" lon="4.64133">
        <ele>393.32</ele>
        <time>2021-06-26T11:06:48Z</time>
      </trkpt>
      <trkpt lat="45.59538" lon="4.64122">
        <ele>393.05</ele>
        <time>2021-06-26T11:07:04Z</time>
      </trkpt>
      <trkpt lat="45.59539" lon="4.6412">
        <ele>393.09</ele>
        <time>2021-06-26T11:07:05Z</time>
      </trkpt>
      <trkpt lat="45.5954" lon="4.64119">
        <ele>393.11</ele>
        <time>2021-06-26T11:07:06Z</time>
      </trkpt>
      <trkpt lat="45.59544" lon="4.64101">
        <ele>392.29</ele>
        <time>2021-06-26T11:07:21Z</time>
      </trkpt>
      <trkpt lat="45.59549" lon="4.64081">
        <ele>391.74</ele>
        <time>2021-06-26T11:07:39Z</time>
      </trkpt>
      <trkpt lat="45.59549" lon="4.64079">
        <ele>391.69</ele>
        <time>2021-06-26T11:07:40Z</time>
      </trkpt>
      <trkpt lat="45.59549" lon="4.64077">
        <ele>391.66</ele>
        <time>2021-06-26T11:07:41Z</time>
      </trkpt>
      <trkpt lat="45.59553" lon="4.64052">
        <ele>390.79</ele>
        <time>2021-06-26T11:07:58Z</time>
      </trkpt>
      <trkpt lat="45.59547" lon="4.6402">
        <ele>388.86</ele>
        <time>2021-06-26T11:08:16Z</time>
      </trkpt>
      <trkpt lat="45.59547" lon="4.64018">
        <ele>388.79</ele>
        <time>2021-06-26T11:08:17Z</time>
      </trkpt>
      <trkpt lat="45.59544" lon="4.64002">
        <ele>387.85</ele>
        <time>2021-06-26T11:08:25Z</time>
      </trkpt>
      <trkpt lat="45.59538" lon="4.6397">
        <ele>387.51</ele>
        <time>2021-06-26T11:08:43Z</time>
      </trkpt>
      <trkpt lat="45.59529" lon="4.63938">
        <ele>388.06</ele>
        <time>2021-06-26T11:09:03Z</time>
      </trkpt>
      <trkpt lat="45.59525" lon="4.63932">
        <ele>387.69</ele>
        <time>2021-06-26T11:09:09Z</time>
      </trkpt>
      <trkpt lat="45.59525" lon="4.63918">
        <ele>387.27</ele>
        <time>2021-06-26T11:09:19Z</time>
      </trkpt>
      <trkpt lat="45.59525" lon="4.63916">
        <ele>387.15</ele>
        <time>2021-06-26T11:09:20Z</time>
      </trkpt>
      <trkpt lat="45.59526" lon="4.63915">
        <ele>387.04</ele>
        <time>2021-06-26T11:09:21Z</time>
      </trkpt>
      <trkpt lat="45.59526" lon="4.63913">
        <ele>386.92</ele>
        <time>2021-06-26T11:09:22Z</time>
      </trkpt>
      <trkpt lat="45.59526" lon="4.63911">
        <ele>386.8</ele>
        <time>2021-06-26T11:09:23Z</time>
      </trkpt>
      <trkpt lat="45.59526" lon="4.63909">
        <ele>386.67</ele>
        <time>2021-06-26T11:09:24Z</time>
      </trkpt>
      <trkpt lat="45.59526" lon="4.63907">
        <ele>386.56</ele>
        <time>2021-06-26T11:09:25Z</time>
      </trkpt>
      <trkpt lat="45.59527" lon="4.63906">
        <ele>386.45</ele>
        <time>2021-06-26T11:09:26Z</time>
      </trkpt>
      <trkpt lat="45.59534" lon="4.63873">
        <ele>385.05</ele>
        <time>2021-06-26T11:09:44Z</time>
      </trkpt>
      <trkpt lat="45.59534" lon="4.63871">
        <ele>385.03</ele>
        <time>2021-06-26T11:09:45Z</time>
      </trkpt>
      <trkpt lat="45.59535" lon="4.6387">
        <ele>384.98</ele>
        <time>2021-06-26T11:09:46Z</time>
      </trkpt>
      <trkpt lat="45.59536" lon="4.63869">
        <ele>384.92</ele>
        <time>2021-06-26T11:09:47Z</time>
      </trkpt>
      <trkpt lat="45.59545" lon="4.63864">
        <ele>384</ele>
        <time>2021-06-26T11:10:02Z</time>
      </trkpt>
      <trkpt lat="45.59556" lon="4.63862">
        <ele>382.32</ele>
        <time>2021-06-26T11:10:22Z</time>
      </trkpt>
      <trkpt lat="45.59575" lon="4.63849">
        <ele>382.98</ele>
        <time>2021-06-26T11:10:43Z</time>
      </trkpt>
      <trkpt lat="45.59578" lon="4.63846">
        <ele>383.16</ele>
        <time>2021-06-26T11:10:46Z</time>
      </trkpt>
      <trkpt lat="45.59588" lon="4.63836">
        <ele>384.1</ele>
        <time>2021-06-26T11:10:59Z</time>
      </trkpt>
      <trkpt lat="45.59605" lon="4.63839">
        <ele>385.89</ele>
        <time>2021-06-26T11:11:16Z</time>
      </trkpt>
      <trkpt lat="45.59623" lon="4.63852">
        <ele>388.91</ele>
        <time>2021-06-26T11:11:38Z</time>
      </trkpt>
      <trkpt lat="45.59639" lon="4.63862">
        <ele>391.93</ele>
        <time>2021-06-26T11:11:58Z</time>
      </trkpt>
      <trkpt lat="45.59647" lon="4.63849">
        <ele>395.09</ele>
        <time>2021-06-26T11:12:18Z</time>
      </trkpt>
      <trkpt lat="45.59654" lon="4.63825">
        <ele>398.17</ele>
        <time>2021-06-26T11:12:37Z</time>
      </trkpt>
      <trkpt lat="45.59657" lon="4.63816">
        <ele>399.49</ele>
        <time>2021-06-26T11:12:54Z</time>
      </trkpt>
      <trkpt lat="45.59656" lon="4.63816">
        <ele>399.54</ele>
        <time>2021-06-26T11:13:10Z</time>
      </trkpt>
      <trkpt lat="45.59657" lon="4.63816">
        <ele>399.51</ele>
        <time>2021-06-26T11:13:13Z</time>
      </trkpt>
      <trkpt lat="45.59661" lon="4.63813">
        <ele>399.34</ele>
        <time>2021-06-26T11:13:17Z</time>
      </trkpt>
      <trkpt lat="45.59672" lon="4.63809">
        <ele>399.64</ele>
        <time>2021-06-26T11:13:26Z</time>
      </trkpt>
      <trkpt lat="45.59692" lon="4.63803">
        <ele>401.18</ele>
        <time>2021-06-26T11:13:46Z</time>
      </trkpt>
      <trkpt lat="45.59712" lon="4.63789">
        <ele>403.86</ele>
        <time>2021-06-26T11:14:05Z</time>
      </trkpt>
      <trkpt lat="45.5973" lon="4.63776">
        <ele>406.18</ele>
        <time>2021-06-26T11:14:23Z</time>
      </trkpt>
      <trkpt lat="45.59731" lon="4.63775">
        <ele>406.35</ele>
        <time>2021-06-26T11:14:24Z</time>
      </trkpt>
      <trkpt lat="45.59732" lon="4.63774">
        <ele>406.51</ele>
        <time>2021-06-26T11:14:25Z</time>
      </trkpt>
      <trkpt lat="45.59734" lon="4.63773">
        <ele>406.65</ele>
        <time>2021-06-26T11:14:26Z</time>
      </trkpt>
      <trkpt lat="45.59735" lon="4.63773">
        <ele>406.78</ele>
        <time>2021-06-26T11:14:27Z</time>
      </trkpt>
      <trkpt lat="45.59746" lon="4.63766">
        <ele>408.2</ele>
        <time>2021-06-26T11:14:44Z</time>
      </trkpt>
      <trkpt lat="45.59752" lon="4.6377">
        <ele>408.59</ele>
        <time>2021-06-26T11:15:06Z</time>
      </trkpt>
      <trkpt lat="45.59755" lon="4.63781">
        <ele>409.64</ele>
        <time>2021-06-26T11:15:21Z</time>
      </trkpt>
      <trkpt lat="45.59757" lon="4.63771">
        <ele>409.82</ele>
        <time>2021-06-26T11:15:31Z</time>
      </trkpt>
      <trkpt lat="45.59762" lon="4.63764">
        <ele>410.18</ele>
        <time>2021-06-26T11:15:48Z</time>
      </trkpt>
      <trkpt lat="45.59765" lon="4.63761">
        <ele>410.36</ele>
        <time>2021-06-26T11:15:58Z</time>
      </trkpt>
      <trkpt lat="45.59767" lon="4.63761">
        <ele>410.37</ele>
        <time>2021-06-26T11:15:59Z</time>
      </trkpt>
      <trkpt lat="45.5977" lon="4.6376">
        <ele>410.74</ele>
        <time>2021-06-26T11:16:11Z</time>
      </trkpt>
      <trkpt lat="45.59769" lon="4.63759">
        <ele>410.55</ele>
        <time>2021-06-26T11:16:32Z</time>
      </trkpt>
      <trkpt lat="45.59765" lon="4.63754">
        <ele>410.61</ele>
        <time>2021-06-26T11:16:47Z</time>
      </trkpt>
      <trkpt lat="45.59771" lon="4.63747">
        <ele>410.82</ele>
        <time>2021-06-26T11:17:01Z</time>
      </trkpt>
      <trkpt lat="45.59772" lon="4.63745">
        <ele>410.84</ele>
        <time>2021-06-26T11:17:02Z</time>
      </trkpt>
      <trkpt lat="45.59773" lon="4.63744">
        <ele>410.86</ele>
        <time>2021-06-26T11:17:03Z</time>
      </trkpt>
      <trkpt lat="45.59774" lon="4.63743">
        <ele>410.87</ele>
        <time>2021-06-26T11:17:04Z</time>
      </trkpt>
      <trkpt lat="45.59775" lon="4.63741">
        <ele>410.88</ele>
        <time>2021-06-26T11:17:05Z</time>
      </trkpt>
      <trkpt lat="45.59775" lon="4.6374">
        <ele>410.89</ele>
        <time>2021-06-26T11:17:06Z</time>
      </trkpt>
      <trkpt lat="45.59776" lon="4.63739">
        <ele>410.9</ele>
        <time>2021-06-26T11:17:07Z</time>
      </trkpt>
      <trkpt lat="45.59778" lon="4.63739">
        <ele>410.93</ele>
        <time>2021-06-26T11:17:08Z</time>
      </trkpt>
      <trkpt lat="45.5978" lon="4.63735">
        <ele>411.12</ele>
        <time>2021-06-26T11:17:11Z</time>
      </trkpt>
      <trkpt lat="45.59781" lon="4.63734">
        <ele>411.12</ele>
        <time>2021-06-26T11:17:12Z</time>
      </trkpt>
      <trkpt lat="45.59782" lon="4.63733">
        <ele>411.31</ele>
        <time>2021-06-26T11:17:13Z</time>
      </trkpt>
      <trkpt lat="45.59787" lon="4.63728">
        <ele>412.33</ele>
        <time>2021-06-26T11:17:29Z</time>
      </trkpt>
      <trkpt lat="45.59796" lon="4.63717">
        <ele>412.71</ele>
        <time>2021-06-26T11:17:42Z</time>
      </trkpt>
      <trkpt lat="45.59814" lon="4.637">
        <ele>413.9</ele>
        <time>2021-06-26T11:18:01Z</time>
      </trkpt>
      <trkpt lat="45.59824" lon="4.63693">
        <ele>415.26</ele>
        <time>2021-06-26T11:18:19Z</time>
      </trkpt>
      <trkpt lat="45.59823" lon="4.63696">
        <ele>415.46</ele>
        <time>2021-06-26T11:18:44Z</time>
      </trkpt>
      <trkpt lat="45.5984" lon="4.6367">
        <ele>417.29</ele>
        <time>2021-06-26T11:19:18Z</time>
      </trkpt>
      <trkpt lat="45.59843" lon="4.63667">
        <ele>417.52</ele>
        <time>2021-06-26T11:19:21Z</time>
      </trkpt>
      <trkpt lat="45.59844" lon="4.63666">
        <ele>417.6</ele>
        <time>2021-06-26T11:19:22Z</time>
      </trkpt>
      <trkpt lat="45.59844" lon="4.63664">
        <ele>417.69</ele>
        <time>2021-06-26T11:19:23Z</time>
      </trkpt>
      <trkpt lat="45.59845" lon="4.63663">
        <ele>417.78</ele>
        <time>2021-06-26T11:19:24Z</time>
      </trkpt>
      <trkpt lat="45.59846" lon="4.63662">
        <ele>417.85</ele>
        <time>2021-06-26T11:19:25Z</time>
      </trkpt>
      <trkpt lat="45.59861" lon="4.63639">
        <ele>419.98</ele>
        <time>2021-06-26T11:19:46Z</time>
      </trkpt>
      <trkpt lat="45.59883" lon="4.63616">
        <ele>422.14</ele>
        <time>2021-06-26T11:20:08Z</time>
      </trkpt>
      <trkpt lat="45.59903" lon="4.63598">
        <ele>424.3</ele>
        <time>2021-06-26T11:20:29Z</time>
      </trkpt>
      <trkpt lat="45.59908" lon="4.63598">
        <ele>425.64</ele>
        <time>2021-06-26T11:20:47Z</time>
      </trkpt>
      <trkpt lat="45.59922" lon="4.6358">
        <ele>426.67</ele>
        <time>2021-06-26T11:21:04Z</time>
      </trkpt>
      <trkpt lat="45.59932" lon="4.6357">
        <ele>429.1</ele>
        <time>2021-06-26T11:21:20Z</time>
      </trkpt>
      <trkpt lat="45.59935" lon="4.63572">
        <ele>428.76</ele>
        <time>2021-06-26T11:21:42Z</time>
      </trkpt>
      <trkpt lat="45.59934" lon="4.63571">
        <ele>428.81</ele>
        <time>2021-06-26T11:22:07Z</time>
      </trkpt>
      <trkpt lat="45.59934" lon="4.6357">
        <ele>428.78</ele>
        <time>2021-06-26T11:24:15Z</time>
      </trkpt>
      <trkpt lat="45.59934" lon="4.6357">
        <ele>428.57</ele>
        <time>2021-06-26T11:24:17Z</time>
      </trkpt>
      <trkpt lat="45.59934" lon="4.63571">
        <ele>428.76</ele>
        <time>2021-06-26T11:24:34Z</time>
      </trkpt>
      <trkpt lat="45.59933" lon="4.63571">
        <ele>428.76</ele>
        <time>2021-06-26T11:25:04Z</time>
      </trkpt>
      <trkpt lat="45.59939" lon="4.63506">
        <ele>428.74</ele>
        <time>2021-06-26T11:51:28Z</time>
      </trkpt>
      <trkpt lat="45.5994" lon="4.63496">
        <ele>431.57</ele>
        <time>2021-06-26T11:51:35Z</time>
      </trkpt>
      <trkpt lat="45.59944" lon="4.63481">
        <ele>432.64</ele>
        <time>2021-06-26T11:51:46Z</time>
      </trkpt>
      <trkpt lat="45.59951" lon="4.63466">
        <ele>433.88</ele>
        <time>2021-06-26T11:52:02Z</time>
      </trkpt>
      <trkpt lat="45.5996" lon="4.63456">
        <ele>434.82</ele>
        <time>2021-06-26T11:52:23Z</time>
      </trkpt>
      <trkpt lat="45.59978" lon="4.63443">
        <ele>436.16</ele>
        <time>2021-06-26T11:52:42Z</time>
      </trkpt>
      <trkpt lat="45.59996" lon="4.63433">
        <ele>437.27</ele>
        <time>2021-06-26T11:53:00Z</time>
      </trkpt>
      <trkpt lat="45.6001" lon="4.6342">
        <ele>438.57</ele>
        <time>2021-06-26T11:53:16Z</time>
      </trkpt>
      <trkpt lat="45.60024" lon="4.63408">
        <ele>439.54</ele>
        <time>2021-06-26T11:53:31Z</time>
      </trkpt>
      <trkpt lat="45.60035" lon="4.63395">
        <ele>441.14</ele>
        <time>2021-06-26T11:53:45Z</time>
      </trkpt>
      <trkpt lat="45.60045" lon="4.63377">
        <ele>442.97</ele>
        <time>2021-06-26T11:54:02Z</time>
      </trkpt>
      <trkpt lat="45.60052" lon="4.63368">
        <ele>444.1</ele>
        <time>2021-06-26T11:54:12Z</time>
      </trkpt>
      <trkpt lat="45.60066" lon="4.63356">
        <ele>447.03</ele>
        <time>2021-06-26T11:54:30Z</time>
      </trkpt>
      <trkpt lat="45.60067" lon="4.63353">
        <ele>448.31</ele>
        <time>2021-06-26T11:54:44Z</time>
      </trkpt>
      <trkpt lat="45.60069" lon="4.63341">
        <ele>448.47</ele>
        <time>2021-06-26T11:54:59Z</time>
      </trkpt>
      <trkpt lat="45.60068" lon="4.6334">
        <ele>448.71</ele>
        <time>2021-06-26T11:55:12Z</time>
      </trkpt>
      <trkpt lat="45.60068" lon="4.63321">
        <ele>449.15</ele>
        <time>2021-06-26T11:55:29Z</time>
      </trkpt>
      <trkpt lat="45.60063" lon="4.63327">
        <ele>449.59</ele>
        <time>2021-06-26T11:55:43Z</time>
      </trkpt>
      <trkpt lat="45.60067" lon="4.63322">
        <ele>449.85</ele>
        <time>2021-06-26T11:55:55Z</time>
      </trkpt>
      <trkpt lat="45.6007" lon="4.6331">
        <ele>451.01</ele>
        <time>2021-06-26T11:56:13Z</time>
      </trkpt>
      <trkpt lat="45.60071" lon="4.6331">
        <ele>451.12</ele>
        <time>2021-06-26T11:56:35Z</time>
      </trkpt>
      <trkpt lat="45.60113" lon="4.6327">
        <ele>457.56</ele>
        <time>2021-06-26T11:58:31Z</time>
      </trkpt>
      <trkpt lat="45.60115" lon="4.63249">
        <ele>459.91</ele>
        <time>2021-06-26T11:58:47Z</time>
      </trkpt>
      <trkpt lat="45.60118" lon="4.63241">
        <ele>461.73</ele>
        <time>2021-06-26T11:59:02Z</time>
      </trkpt>
      <trkpt lat="45.6012" lon="4.63229">
        <ele>463.19</ele>
        <time>2021-06-26T11:59:19Z</time>
      </trkpt>
      <trkpt lat="45.6012" lon="4.63228">
        <ele>463.91</ele>
        <time>2021-06-26T11:59:36Z</time>
      </trkpt>
      <trkpt lat="45.60122" lon="4.63227">
        <ele>463.92</ele>
        <time>2021-06-26T11:59:40Z</time>
      </trkpt>
      <trkpt lat="45.60193" lon="4.63098">
        <ele>481.85</ele>
        <time>2021-06-26T12:03:31Z</time>
      </trkpt>
      <trkpt lat="45.60196" lon="4.63088">
        <ele>482.29</ele>
        <time>2021-06-26T12:03:41Z</time>
      </trkpt>
      <trkpt lat="45.60196" lon="4.63086">
        <ele>482.33</ele>
        <time>2021-06-26T12:03:42Z</time>
      </trkpt>
      <trkpt lat="45.60197" lon="4.63057">
        <ele>484.14</ele>
        <time>2021-06-26T12:03:58Z</time>
      </trkpt>
      <trkpt lat="45.60199" lon="4.63048">
        <ele>485.47</ele>
        <time>2021-06-26T12:04:13Z</time>
      </trkpt>
      <trkpt lat="45.60203" lon="4.63044">
        <ele>485.62</ele>
        <time>2021-06-26T12:04:25Z</time>
      </trkpt>
      <trkpt lat="45.60203" lon="4.63043">
        <ele>485.65</ele>
        <time>2021-06-26T12:04:26Z</time>
      </trkpt>
      <trkpt lat="45.60204" lon="4.6304">
        <ele>485.73</ele>
        <time>2021-06-26T12:04:28Z</time>
      </trkpt>
      <trkpt lat="45.60205" lon="4.63036">
        <ele>486.49</ele>
        <time>2021-06-26T12:04:37Z</time>
      </trkpt>
      <trkpt lat="45.60206" lon="4.63035">
        <ele>486.53</ele>
        <time>2021-06-26T12:04:38Z</time>
      </trkpt>
      <trkpt lat="45.60207" lon="4.63033">
        <ele>486.55</ele>
        <time>2021-06-26T12:04:39Z</time>
      </trkpt>
      <trkpt lat="45.60207" lon="4.63032">
        <ele>486.58</ele>
        <time>2021-06-26T12:04:40Z</time>
      </trkpt>
      <trkpt lat="45.60216" lon="4.63008">
        <ele>489.48</ele>
        <time>2021-06-26T12:04:58Z</time>
      </trkpt>
      <trkpt lat="45.60226" lon="4.63001">
        <ele>491.9</ele>
        <time>2021-06-26T12:05:12Z</time>
      </trkpt>
      <trkpt lat="45.60227" lon="4.63002">
        <ele>492.29</ele>
        <time>2021-06-26T12:05:13Z</time>
      </trkpt>
      <trkpt lat="45.60232" lon="4.63027">
        <ele>494.09</ele>
        <time>2021-06-26T12:05:30Z</time>
      </trkpt>
      <trkpt lat="45.60239" lon="4.6304">
        <ele>495.88</ele>
        <time>2021-06-26T12:05:46Z</time>
      </trkpt>
      <trkpt lat="45.60239" lon="4.63039">
        <ele>496.36</ele>
        <time>2021-06-26T12:05:53Z</time>
      </trkpt>
      <trkpt lat="45.60243" lon="4.6304">
        <ele>496.41</ele>
        <time>2021-06-26T12:05:58Z</time>
      </trkpt>
      <trkpt lat="45.60245" lon="4.6304">
        <ele>496.42</ele>
        <time>2021-06-26T12:05:59Z</time>
      </trkpt>
      <trkpt lat="45.6026" lon="4.63032">
        <ele>497.76</ele>
        <time>2021-06-26T12:06:15Z</time>
      </trkpt>
      <trkpt lat="45.60262" lon="4.6303">
        <ele>498.09</ele>
        <time>2021-06-26T12:06:21Z</time>
      </trkpt>
      <trkpt lat="45.60263" lon="4.63029">
        <ele>498.12</ele>
        <time>2021-06-26T12:06:22Z</time>
      </trkpt>
      <trkpt lat="45.60264" lon="4.63029">
        <ele>498.17</ele>
        <time>2021-06-26T12:06:23Z</time>
      </trkpt>
      <trkpt lat="45.60265" lon="4.63028">
        <ele>498.22</ele>
        <time>2021-06-26T12:06:24Z</time>
      </trkpt>
      <trkpt lat="45.60266" lon="4.63027">
        <ele>498.32</ele>
        <time>2021-06-26T12:06:25Z</time>
      </trkpt>
      <trkpt lat="45.60267" lon="4.63026">
        <ele>498.38</ele>
        <time>2021-06-26T12:06:26Z</time>
      </trkpt>
      <trkpt lat="45.60283" lon="4.6301">
        <ele>500.01</ele>
        <time>2021-06-26T12:06:44Z</time>
      </trkpt>
      <trkpt lat="45.60298" lon="4.62997">
        <ele>501.68</ele>
        <time>2021-06-26T12:07:01Z</time>
      </trkpt>
      <trkpt lat="45.603" lon="4.62996">
        <ele>501.87</ele>
        <time>2021-06-26T12:07:03Z</time>
      </trkpt>
      <trkpt lat="45.60301" lon="4.62995">
        <ele>501.98</ele>
        <time>2021-06-26T12:07:04Z</time>
      </trkpt>
      <trkpt lat="45.60309" lon="4.62988">
        <ele>503.59</ele>
        <time>2021-06-26T12:07:16Z</time>
      </trkpt>
      <trkpt lat="45.60315" lon="4.62986">
        <ele>505.71</ele>
        <time>2021-06-26T12:07:30Z</time>
      </trkpt>
      <trkpt lat="45.60311" lon="4.62992">
        <ele>505.49</ele>
        <time>2021-06-26T12:07:40Z</time>
      </trkpt>
      <trkpt lat="45.6031" lon="4.62992">
        <ele>505.41</ele>
        <time>2021-06-26T12:07:41Z</time>
      </trkpt>
      <trkpt lat="45.60302" lon="4.62998">
        <ele>504.33</ele>
        <time>2021-06-26T12:07:49Z</time>
      </trkpt>
      <trkpt lat="45.60301" lon="4.62998">
        <ele>504.23</ele>
        <time>2021-06-26T12:07:50Z</time>
      </trkpt>
      <trkpt lat="45.603" lon="4.62999">
        <ele>504.16</ele>
        <time>2021-06-26T12:07:51Z</time>
      </trkpt>
      <trkpt lat="45.6029" lon="4.63018">
        <ele>502.57</ele>
        <time>2021-06-26T12:08:05Z</time>
      </trkpt>
      <trkpt lat="45.60292" lon="4.63021">
        <ele>502.44</ele>
        <time>2021-06-26T12:08:07Z</time>
      </trkpt>
      <trkpt lat="45.60293" lon="4.63022">
        <ele>502.31</ele>
        <time>2021-06-26T12:08:08Z</time>
      </trkpt>
      <trkpt lat="45.60301" lon="4.63046">
        <ele>500.88</ele>
        <time>2021-06-26T12:08:25Z</time>
      </trkpt>
      <trkpt lat="45.60303" lon="4.63051">
        <ele>500.65</ele>
        <time>2021-06-26T12:08:28Z</time>
      </trkpt>
      <trkpt lat="45.60304" lon="4.63052">
        <ele>500.59</ele>
        <time>2021-06-26T12:08:29Z</time>
      </trkpt>
      <trkpt lat="45.60313" lon="4.63076">
        <ele>498.98</ele>
        <time>2021-06-26T12:08:45Z</time>
      </trkpt>
      <trkpt lat="45.60327" lon="4.63099">
        <ele>496.98</ele>
        <time>2021-06-26T12:09:04Z</time>
      </trkpt>
      <trkpt lat="45.60343" lon="4.63115">
        <ele>495.6</ele>
        <time>2021-06-26T12:09:22Z</time>
      </trkpt>
      <trkpt lat="45.60358" lon="4.63126">
        <ele>494.59</ele>
        <time>2021-06-26T12:09:37Z</time>
      </trkpt>
      <trkpt lat="45.60374" lon="4.63136">
        <ele>493.3</ele>
        <time>2021-06-26T12:09:53Z</time>
      </trkpt>
      <trkpt lat="45.6039" lon="4.63149">
        <ele>492.43</ele>
        <time>2021-06-26T12:10:09Z</time>
      </trkpt>
      <trkpt lat="45.60395" lon="4.63151">
        <ele>491.93</ele>
        <time>2021-06-26T12:10:17Z</time>
      </trkpt>
      <trkpt lat="45.60398" lon="4.63153">
        <ele>491.83</ele>
        <time>2021-06-26T12:10:20Z</time>
      </trkpt>
      <trkpt lat="45.60411" lon="4.6316">
        <ele>491.58</ele>
        <time>2021-06-26T12:10:31Z</time>
      </trkpt>
      <trkpt lat="45.60421" lon="4.63167">
        <ele>491.16</ele>
        <time>2021-06-26T12:10:42Z</time>
      </trkpt>
      <trkpt lat="45.60422" lon="4.63172">
        <ele>491.69</ele>
        <time>2021-06-26T12:10:57Z</time>
      </trkpt>
      <trkpt lat="45.60427" lon="4.63185">
        <ele>491.37</ele>
        <time>2021-06-26T12:11:06Z</time>
      </trkpt>
      <trkpt lat="45.60437" lon="4.63205">
        <ele>490.01</ele>
        <time>2021-06-26T12:11:24Z</time>
      </trkpt>
      <trkpt lat="45.60442" lon="4.63212">
        <ele>489.09</ele>
        <time>2021-06-26T12:11:40Z</time>
      </trkpt>
      <trkpt lat="45.60447" lon="4.63226">
        <ele>487.9</ele>
        <time>2021-06-26T12:11:55Z</time>
      </trkpt>
      <trkpt lat="45.60452" lon="4.63237">
        <ele>486.15</ele>
        <time>2021-06-26T12:12:06Z</time>
      </trkpt>
      <trkpt lat="45.60456" lon="4.63242">
        <ele>485.15</ele>
        <time>2021-06-26T12:12:11Z</time>
      </trkpt>
      <trkpt lat="45.60459" lon="4.63247">
        <ele>483.43</ele>
        <time>2021-06-26T12:12:24Z</time>
      </trkpt>
      <trkpt lat="45.6046" lon="4.63249">
        <ele>483.15</ele>
        <time>2021-06-26T12:12:36Z</time>
      </trkpt>
      <trkpt lat="45.60461" lon="4.6325">
        <ele>483.14</ele>
        <time>2021-06-26T12:12:37Z</time>
      </trkpt>
      <trkpt lat="45.60463" lon="4.63252">
        <ele>483.04</ele>
        <time>2021-06-26T12:12:39Z</time>
      </trkpt>
      <trkpt lat="45.60464" lon="4.63253">
        <ele>482.87</ele>
        <time>2021-06-26T12:12:40Z</time>
      </trkpt>
      <trkpt lat="45.60469" lon="4.6326">
        <ele>481.82</ele>
        <time>2021-06-26T12:12:49Z</time>
      </trkpt>
      <trkpt lat="45.6047" lon="4.63261">
        <ele>481.75</ele>
        <time>2021-06-26T12:12:50Z</time>
      </trkpt>
      <trkpt lat="45.60471" lon="4.63262">
        <ele>481.66</ele>
        <time>2021-06-26T12:12:51Z</time>
      </trkpt>
      <trkpt lat="45.60473" lon="4.63263">
        <ele>481.55</ele>
        <time>2021-06-26T12:12:52Z</time>
      </trkpt>
      <trkpt lat="45.60473" lon="4.63265">
        <ele>481.43</ele>
        <time>2021-06-26T12:12:53Z</time>
      </trkpt>
      <trkpt lat="45.6048" lon="4.63273">
        <ele>479.98</ele>
        <time>2021-06-26T12:13:06Z</time>
      </trkpt>
      <trkpt lat="45.60485" lon="4.63278">
        <ele>478.87</ele>
        <time>2021-06-26T12:13:23Z</time>
      </trkpt>
      <trkpt lat="45.60492" lon="4.63291">
        <ele>477.74</ele>
        <time>2021-06-26T12:13:37Z</time>
      </trkpt>
      <trkpt lat="45.605" lon="4.63309">
        <ele>475.26</ele>
        <time>2021-06-26T12:13:54Z</time>
      </trkpt>
      <trkpt lat="45.60504" lon="4.63318">
        <ele>473</ele>
        <time>2021-06-26T12:14:09Z</time>
      </trkpt>
      <trkpt lat="45.6051" lon="4.63325">
        <ele>472.3</ele>
        <time>2021-06-26T12:14:32Z</time>
      </trkpt>
      <trkpt lat="45.60513" lon="4.63344">
        <ele>470.24</ele>
        <time>2021-06-26T12:14:47Z</time>
      </trkpt>
      <trkpt lat="45.6052" lon="4.63359">
        <ele>468.57</ele>
        <time>2021-06-26T12:15:00Z</time>
      </trkpt>
      <trkpt lat="45.60529" lon="4.63374">
        <ele>466.66</ele>
        <time>2021-06-26T12:15:13Z</time>
      </trkpt>
      <trkpt lat="45.60531" lon="4.63377">
        <ele>465.14</ele>
        <time>2021-06-26T12:15:27Z</time>
      </trkpt>
      <trkpt lat="45.60536" lon="4.63388">
        <ele>464.4</ele>
        <time>2021-06-26T12:15:42Z</time>
      </trkpt>
      <trkpt lat="45.60537" lon="4.63389">
        <ele>464.34</ele>
        <time>2021-06-26T12:15:43Z</time>
      </trkpt>
      <trkpt lat="45.60538" lon="4.6339">
        <ele>464.27</ele>
        <time>2021-06-26T12:15:44Z</time>
      </trkpt>
      <trkpt lat="45.60547" lon="4.63415">
        <ele>462.4</ele>
        <time>2021-06-26T12:16:01Z</time>
      </trkpt>
      <trkpt lat="45.60552" lon="4.63425">
        <ele>461.69</ele>
        <time>2021-06-26T12:16:09Z</time>
      </trkpt>
      <trkpt lat="45.60552" lon="4.63426">
        <ele>461.62</ele>
        <time>2021-06-26T12:16:10Z</time>
      </trkpt>
      <trkpt lat="45.60559" lon="4.63449">
        <ele>460</ele>
        <time>2021-06-26T12:16:28Z</time>
      </trkpt>
      <trkpt lat="45.60564" lon="4.63459">
        <ele>459.44</ele>
        <time>2021-06-26T12:16:36Z</time>
      </trkpt>
      <trkpt lat="45.60564" lon="4.63461">
        <ele>459.39</ele>
        <time>2021-06-26T12:16:37Z</time>
      </trkpt>
      <trkpt lat="45.60565" lon="4.63462">
        <ele>459.33</ele>
        <time>2021-06-26T12:16:38Z</time>
      </trkpt>
      <trkpt lat="45.60566" lon="4.63464">
        <ele>459.23</ele>
        <time>2021-06-26T12:16:39Z</time>
      </trkpt>
      <trkpt lat="45.60566" lon="4.63465">
        <ele>459.15</ele>
        <time>2021-06-26T12:16:40Z</time>
      </trkpt>
      <trkpt lat="45.60567" lon="4.63467">
        <ele>459.07</ele>
        <time>2021-06-26T12:16:41Z</time>
      </trkpt>
      <trkpt lat="45.60567" lon="4.63469">
        <ele>458.98</ele>
        <time>2021-06-26T12:16:42Z</time>
      </trkpt>
      <trkpt lat="45.60568" lon="4.6347">
        <ele>458.9</ele>
        <time>2021-06-26T12:16:43Z</time>
      </trkpt>
      <trkpt lat="45.60568" lon="4.63471">
        <ele>458.83</ele>
        <time>2021-06-26T12:16:44Z</time>
      </trkpt>
      <trkpt lat="45.60569" lon="4.63473">
        <ele>458.79</ele>
        <time>2021-06-26T12:16:45Z</time>
      </trkpt>
      <trkpt lat="45.60569" lon="4.63474">
        <ele>458.75</ele>
        <time>2021-06-26T12:16:46Z</time>
      </trkpt>
      <trkpt lat="45.6057" lon="4.63476">
        <ele>458.7</ele>
        <time>2021-06-26T12:16:47Z</time>
      </trkpt>
      <trkpt lat="45.6057" lon="4.63477">
        <ele>458.64</ele>
        <time>2021-06-26T12:16:48Z</time>
      </trkpt>
      <trkpt lat="45.60571" lon="4.63478">
        <ele>458.56</ele>
        <time>2021-06-26T12:16:49Z</time>
      </trkpt>
      <trkpt lat="45.60571" lon="4.6348">
        <ele>458.39</ele>
        <time>2021-06-26T12:16:50Z</time>
      </trkpt>
      <trkpt lat="45.60572" lon="4.63481">
        <ele>458.39</ele>
        <time>2021-06-26T12:16:51Z</time>
      </trkpt>
      <trkpt lat="45.60572" lon="4.63483">
        <ele>458.23</ele>
        <time>2021-06-26T12:16:52Z</time>
      </trkpt>
      <trkpt lat="45.60573" lon="4.63484">
        <ele>458.23</ele>
        <time>2021-06-26T12:16:53Z</time>
      </trkpt>
      <trkpt lat="45.60573" lon="4.63485">
        <ele>458.16</ele>
        <time>2021-06-26T12:16:54Z</time>
      </trkpt>
      <trkpt lat="45.60574" lon="4.63487">
        <ele>458.02</ele>
        <time>2021-06-26T12:16:55Z</time>
      </trkpt>
      <trkpt lat="45.60574" lon="4.63488">
        <ele>457.96</ele>
        <time>2021-06-26T12:16:56Z</time>
      </trkpt>
      <trkpt lat="45.60575" lon="4.6349">
        <ele>457.91</ele>
        <time>2021-06-26T12:16:57Z</time>
      </trkpt>
      <trkpt lat="45.60575" lon="4.63491">
        <ele>457.84</ele>
        <time>2021-06-26T12:16:58Z</time>
      </trkpt>
      <trkpt lat="45.60576" lon="4.63493">
        <ele>457.78</ele>
        <time>2021-06-26T12:16:59Z</time>
      </trkpt>
      <trkpt lat="45.60577" lon="4.63494">
        <ele>457.72</ele>
        <time>2021-06-26T12:17:00Z</time>
      </trkpt>
      <trkpt lat="45.60577" lon="4.63496">
        <ele>457.67</ele>
        <time>2021-06-26T12:17:01Z</time>
      </trkpt>
      <trkpt lat="45.60585" lon="4.63526">
        <ele>456.51</ele>
        <time>2021-06-26T12:17:20Z</time>
      </trkpt>
      <trkpt lat="45.60592" lon="4.6355">
        <ele>455.87</ele>
        <time>2021-06-26T12:17:37Z</time>
      </trkpt>
      <trkpt lat="45.60596" lon="4.63565">
        <ele>455.1</ele>
        <time>2021-06-26T12:17:51Z</time>
      </trkpt>
      <trkpt lat="45.60596" lon="4.63567">
        <ele>455.05</ele>
        <time>2021-06-26T12:17:52Z</time>
      </trkpt>
      <trkpt lat="45.60596" lon="4.63568">
        <ele>455.02</ele>
        <time>2021-06-26T12:17:53Z</time>
      </trkpt>
      <trkpt lat="45.60599" lon="4.63575">
        <ele>454.16</ele>
        <time>2021-06-26T12:18:06Z</time>
      </trkpt>
      <trkpt lat="45.60599" lon="4.63577">
        <ele>454.12</ele>
        <time>2021-06-26T12:18:07Z</time>
      </trkpt>
      <trkpt lat="45.606" lon="4.63585">
        <ele>453.92</ele>
        <time>2021-06-26T12:18:12Z</time>
      </trkpt>
      <trkpt lat="45.60601" lon="4.63587">
        <ele>453.83</ele>
        <time>2021-06-26T12:18:13Z</time>
      </trkpt>
      <trkpt lat="45.60601" lon="4.63588">
        <ele>453.73</ele>
        <time>2021-06-26T12:18:14Z</time>
      </trkpt>
      <trkpt lat="45.60602" lon="4.6359">
        <ele>453.64</ele>
        <time>2021-06-26T12:18:15Z</time>
      </trkpt>
      <trkpt lat="45.60602" lon="4.63591">
        <ele>453.57</ele>
        <time>2021-06-26T12:18:16Z</time>
      </trkpt>
      <trkpt lat="45.60602" lon="4.63593">
        <ele>453.49</ele>
        <time>2021-06-26T12:18:17Z</time>
      </trkpt>
      <trkpt lat="45.60603" lon="4.63594">
        <ele>453.4</ele>
        <time>2021-06-26T12:18:18Z</time>
      </trkpt>
      <trkpt lat="45.60604" lon="4.63596">
        <ele>453.32</ele>
        <time>2021-06-26T12:18:19Z</time>
      </trkpt>
      <trkpt lat="45.60604" lon="4.63597">
        <ele>453.24</ele>
        <time>2021-06-26T12:18:20Z</time>
      </trkpt>
      <trkpt lat="45.60605" lon="4.63598">
        <ele>453.16</ele>
        <time>2021-06-26T12:18:21Z</time>
      </trkpt>
      <trkpt lat="45.60606" lon="4.636">
        <ele>453.07</ele>
        <time>2021-06-26T12:18:22Z</time>
      </trkpt>
      <trkpt lat="45.60606" lon="4.63602">
        <ele>453.01</ele>
        <time>2021-06-26T12:18:23Z</time>
      </trkpt>
      <trkpt lat="45.60606" lon="4.63603">
        <ele>452.95</ele>
        <time>2021-06-26T12:18:24Z</time>
      </trkpt>
      <trkpt lat="45.60606" lon="4.63604">
        <ele>452.9</ele>
        <time>2021-06-26T12:18:25Z</time>
      </trkpt>
      <trkpt lat="45.60607" lon="4.63606">
        <ele>452.83</ele>
        <time>2021-06-26T12:18:26Z</time>
      </trkpt>
      <trkpt lat="45.60607" lon="4.63607">
        <ele>452.77</ele>
        <time>2021-06-26T12:18:27Z</time>
      </trkpt>
      <trkpt lat="45.60607" lon="4.63608">
        <ele>452.69</ele>
        <time>2021-06-26T12:18:28Z</time>
      </trkpt>
      <trkpt lat="45.60608" lon="4.6361">
        <ele>452.61</ele>
        <time>2021-06-26T12:18:29Z</time>
      </trkpt>
      <trkpt lat="45.60609" lon="4.63611">
        <ele>452.52</ele>
        <time>2021-06-26T12:18:30Z</time>
      </trkpt>
      <trkpt lat="45.60614" lon="4.63634">
        <ele>451.26</ele>
        <time>2021-06-26T12:18:46Z</time>
      </trkpt>
      <trkpt lat="45.60614" lon="4.63636">
        <ele>451.2</ele>
        <time>2021-06-26T12:18:47Z</time>
      </trkpt>
      <trkpt lat="45.60616" lon="4.63648">
        <ele>450.7</ele>
        <time>2021-06-26T12:18:53Z</time>
      </trkpt>
      <trkpt lat="45.60615" lon="4.6365">
        <ele>450.63</ele>
        <time>2021-06-26T12:18:54Z</time>
      </trkpt>
      <trkpt lat="45.60616" lon="4.63652">
        <ele>450.48</ele>
        <time>2021-06-26T12:18:55Z</time>
      </trkpt>
      <trkpt lat="45.60616" lon="4.63654">
        <ele>450.48</ele>
        <time>2021-06-26T12:18:56Z</time>
      </trkpt>
      <trkpt lat="45.60617" lon="4.63656">
        <ele>450.35</ele>
        <time>2021-06-26T12:18:57Z</time>
      </trkpt>
      <trkpt lat="45.60617" lon="4.63657">
        <ele>450.29</ele>
        <time>2021-06-26T12:18:58Z</time>
      </trkpt>
      <trkpt lat="45.60617" lon="4.63659">
        <ele>450.24</ele>
        <time>2021-06-26T12:18:59Z</time>
      </trkpt>
      <trkpt lat="45.60618" lon="4.63661">
        <ele>450.17</ele>
        <time>2021-06-26T12:19:00Z</time>
      </trkpt>
      <trkpt lat="45.60618" lon="4.63662">
        <ele>450.13</ele>
        <time>2021-06-26T12:19:01Z</time>
      </trkpt>
      <trkpt lat="45.60618" lon="4.63664">
        <ele>450.09</ele>
        <time>2021-06-26T12:19:02Z</time>
      </trkpt>
      <trkpt lat="45.60618" lon="4.63666">
        <ele>450.04</ele>
        <time>2021-06-26T12:19:03Z</time>
      </trkpt>
      <trkpt lat="45.60618" lon="4.63668">
        <ele>449.99</ele>
        <time>2021-06-26T12:19:04Z</time>
      </trkpt>
      <trkpt lat="45.60619" lon="4.63696">
        <ele>448.71</ele>
        <time>2021-06-26T12:19:21Z</time>
      </trkpt>
      <trkpt lat="45.60622" lon="4.63726">
        <ele>448.22</ele>
        <time>2021-06-26T12:19:39Z</time>
      </trkpt>
      <trkpt lat="45.60623" lon="4.63728">
        <ele>448.25</ele>
        <time>2021-06-26T12:19:40Z</time>
      </trkpt>
      <trkpt lat="45.60628" lon="4.63738">
        <ele>448.63</ele>
        <time>2021-06-26T12:19:47Z</time>
      </trkpt>
      <trkpt lat="45.60628" lon="4.63739">
        <ele>448.66</ele>
        <time>2021-06-26T12:19:48Z</time>
      </trkpt>
      <trkpt lat="45.60629" lon="4.63741">
        <ele>448.67</ele>
        <time>2021-06-26T12:19:49Z</time>
      </trkpt>
      <trkpt lat="45.60631" lon="4.63745">
        <ele>448.65</ele>
        <time>2021-06-26T12:19:55Z</time>
      </trkpt>
      <trkpt lat="45.60632" lon="4.63746">
        <ele>448.63</ele>
        <time>2021-06-26T12:19:56Z</time>
      </trkpt>
      <trkpt lat="45.60633" lon="4.63747">
        <ele>448.61</ele>
        <time>2021-06-26T12:19:57Z</time>
      </trkpt>
      <trkpt lat="45.60633" lon="4.63749">
        <ele>448.61</ele>
        <time>2021-06-26T12:19:58Z</time>
      </trkpt>
      <trkpt lat="45.60634" lon="4.6375">
        <ele>448.6</ele>
        <time>2021-06-26T12:19:59Z</time>
      </trkpt>
      <trkpt lat="45.60635" lon="4.63752">
        <ele>448.59</ele>
        <time>2021-06-26T12:20:00Z</time>
      </trkpt>
      <trkpt lat="45.60652" lon="4.63773">
        <ele>448.33</ele>
        <time>2021-06-26T12:20:18Z</time>
      </trkpt>
      <trkpt lat="45.60671" lon="4.63786">
        <ele>448.01</ele>
        <time>2021-06-26T12:20:35Z</time>
      </trkpt>
      <trkpt lat="45.60676" lon="4.63788">
        <ele>447.92</ele>
        <time>2021-06-26T12:20:40Z</time>
      </trkpt>
      <trkpt lat="45.60677" lon="4.63789">
        <ele>447.95</ele>
        <time>2021-06-26T12:20:41Z</time>
      </trkpt>
      <trkpt lat="45.60678" lon="4.6379">
        <ele>447.98</ele>
        <time>2021-06-26T12:20:42Z</time>
      </trkpt>
      <trkpt lat="45.60682" lon="4.63792">
        <ele>448.17</ele>
        <time>2021-06-26T12:20:48Z</time>
      </trkpt>
      <trkpt lat="45.60685" lon="4.63792">
        <ele>448.5</ele>
        <time>2021-06-26T12:20:58Z</time>
      </trkpt>
      <trkpt lat="45.60686" lon="4.63793">
        <ele>448.5</ele>
        <time>2021-06-26T12:20:59Z</time>
      </trkpt>
      <trkpt lat="45.60688" lon="4.63793">
        <ele>448.5</ele>
        <time>2021-06-26T12:21:00Z</time>
      </trkpt>
      <trkpt lat="45.60689" lon="4.63794">
        <ele>448.5</ele>
        <time>2021-06-26T12:21:01Z</time>
      </trkpt>
      <trkpt lat="45.6069" lon="4.63795">
        <ele>448.5</ele>
        <time>2021-06-26T12:21:02Z</time>
      </trkpt>
      <trkpt lat="45.60691" lon="4.63795">
        <ele>448.5</ele>
        <time>2021-06-26T12:21:03Z</time>
      </trkpt>
      <trkpt lat="45.60698" lon="4.63804">
        <ele>448.75</ele>
        <time>2021-06-26T12:21:13Z</time>
      </trkpt>
      <trkpt lat="45.60699" lon="4.63805">
        <ele>448.77</ele>
        <time>2021-06-26T12:21:14Z</time>
      </trkpt>
      <trkpt lat="45.607" lon="4.63806">
        <ele>448.79</ele>
        <time>2021-06-26T12:21:15Z</time>
      </trkpt>
      <trkpt lat="45.60708" lon="4.63833">
        <ele>448.04</ele>
        <time>2021-06-26T12:21:32Z</time>
      </trkpt>
      <trkpt lat="45.60717" lon="4.63863">
        <ele>446.59</ele>
        <time>2021-06-26T12:21:50Z</time>
      </trkpt>
      <trkpt lat="45.60726" lon="4.63891">
        <ele>445.31</ele>
        <time>2021-06-26T12:22:07Z</time>
      </trkpt>
      <trkpt lat="45.60734" lon="4.63917">
        <ele>443.74</ele>
        <time>2021-06-26T12:22:23Z</time>
      </trkpt>
      <trkpt lat="45.60748" lon="4.63944">
        <ele>441.81</ele>
        <time>2021-06-26T12:22:41Z</time>
      </trkpt>
      <trkpt lat="45.60753" lon="4.63974">
        <ele>440</ele>
        <time>2021-06-26T12:22:58Z</time>
      </trkpt>
      <trkpt lat="45.60765" lon="4.64003">
        <ele>438.5</ele>
        <time>2021-06-26T12:23:17Z</time>
      </trkpt>
      <trkpt lat="45.60765" lon="4.64005">
        <ele>438.38</ele>
        <time>2021-06-26T12:23:18Z</time>
      </trkpt>
      <trkpt lat="45.60766" lon="4.64006">
        <ele>438.29</ele>
        <time>2021-06-26T12:23:19Z</time>
      </trkpt>
      <trkpt lat="45.60767" lon="4.64008">
        <ele>438.22</ele>
        <time>2021-06-26T12:23:20Z</time>
      </trkpt>
      <trkpt lat="45.60767" lon="4.6401">
        <ele>438.16</ele>
        <time>2021-06-26T12:23:21Z</time>
      </trkpt>
      <trkpt lat="45.60768" lon="4.64012">
        <ele>438.1</ele>
        <time>2021-06-26T12:23:22Z</time>
      </trkpt>
      <trkpt lat="45.60776" lon="4.64029">
        <ele>437.13</ele>
        <time>2021-06-26T12:23:34Z</time>
      </trkpt>
      <trkpt lat="45.60777" lon="4.6403">
        <ele>437.05</ele>
        <time>2021-06-26T12:23:35Z</time>
      </trkpt>
      <trkpt lat="45.60779" lon="4.64032">
        <ele>436.99</ele>
        <time>2021-06-26T12:23:36Z</time>
      </trkpt>
      <trkpt lat="45.60779" lon="4.64033">
        <ele>436.92</ele>
        <time>2021-06-26T12:23:37Z</time>
      </trkpt>
      <trkpt lat="45.6078" lon="4.64034">
        <ele>436.85</ele>
        <time>2021-06-26T12:23:38Z</time>
      </trkpt>
      <trkpt lat="45.6078" lon="4.64036">
        <ele>436.77</ele>
        <time>2021-06-26T12:23:39Z</time>
      </trkpt>
      <trkpt lat="45.60781" lon="4.64038">
        <ele>436.69</ele>
        <time>2021-06-26T12:23:40Z</time>
      </trkpt>
      <trkpt lat="45.60781" lon="4.64039">
        <ele>436.59</ele>
        <time>2021-06-26T12:23:41Z</time>
      </trkpt>
      <trkpt lat="45.60788" lon="4.6406">
        <ele>434.94</ele>
        <time>2021-06-26T12:23:56Z</time>
      </trkpt>
      <trkpt lat="45.60791" lon="4.64084">
        <ele>433</ele>
        <time>2021-06-26T12:24:11Z</time>
      </trkpt>
      <trkpt lat="45.60798" lon="4.64106">
        <ele>431.57</ele>
        <time>2021-06-26T12:24:26Z</time>
      </trkpt>
      <trkpt lat="45.60807" lon="4.64132">
        <ele>429.28</ele>
        <time>2021-06-26T12:24:44Z</time>
      </trkpt>
      <trkpt lat="45.60818" lon="4.64156">
        <ele>427.22</ele>
        <time>2021-06-26T12:25:02Z</time>
      </trkpt>
      <trkpt lat="45.60831" lon="4.64178">
        <ele>424.62</ele>
        <time>2021-06-26T12:25:21Z</time>
      </trkpt>
      <trkpt lat="45.60832" lon="4.64178">
        <ele>424.47</ele>
        <time>2021-06-26T12:25:22Z</time>
      </trkpt>
      <trkpt lat="45.60834" lon="4.64179">
        <ele>424.31</ele>
        <time>2021-06-26T12:25:23Z</time>
      </trkpt>
      <trkpt lat="45.60834" lon="4.64181">
        <ele>424.16</ele>
        <time>2021-06-26T12:25:24Z</time>
      </trkpt>
      <trkpt lat="45.60835" lon="4.64182">
        <ele>424.01</ele>
        <time>2021-06-26T12:25:25Z</time>
      </trkpt>
      <trkpt lat="45.60845" lon="4.642">
        <ele>421.66</ele>
        <time>2021-06-26T12:25:44Z</time>
      </trkpt>
      <trkpt lat="45.60857" lon="4.64217">
        <ele>419.89</ele>
        <time>2021-06-26T12:26:01Z</time>
      </trkpt>
      <trkpt lat="45.60862" lon="4.64235">
        <ele>416.89</ele>
        <time>2021-06-26T12:26:20Z</time>
      </trkpt>
      <trkpt lat="45.60865" lon="4.64242">
        <ele>415.03</ele>
        <time>2021-06-26T12:26:34Z</time>
      </trkpt>
      <trkpt lat="45.60871" lon="4.64257">
        <ele>413.32</ele>
        <time>2021-06-26T12:26:49Z</time>
      </trkpt>
      <trkpt lat="45.60874" lon="4.64275">
        <ele>410.65</ele>
        <time>2021-06-26T12:27:07Z</time>
      </trkpt>
      <trkpt lat="45.6088" lon="4.64292">
        <ele>408.18</ele>
        <time>2021-06-26T12:27:21Z</time>
      </trkpt>
      <trkpt lat="45.60892" lon="4.64314">
        <ele>405.38</ele>
        <time>2021-06-26T12:27:39Z</time>
      </trkpt>
      <trkpt lat="45.60902" lon="4.64334">
        <ele>402.36</ele>
        <time>2021-06-26T12:28:00Z</time>
      </trkpt>
      <trkpt lat="45.60913" lon="4.64351">
        <ele>399.22</ele>
        <time>2021-06-26T12:28:18Z</time>
      </trkpt>
      <trkpt lat="45.60921" lon="4.64357">
        <ele>399.27</ele>
        <time>2021-06-26T12:28:41Z</time>
      </trkpt>
      <trkpt lat="45.6092" lon="4.64355">
        <ele>399.07</ele>
        <time>2021-06-26T12:29:01Z</time>
      </trkpt>
      <trkpt lat="45.60915" lon="4.64353">
        <ele>398.54</ele>
        <time>2021-06-26T12:29:19Z</time>
      </trkpt>
      <trkpt lat="45.60916" lon="4.64355">
        <ele>398.45</ele>
        <time>2021-06-26T12:29:39Z</time>
      </trkpt>
      <trkpt lat="45.60911" lon="4.64394">
        <ele>398.79</ele>
        <time>2021-06-26T12:30:13Z</time>
      </trkpt>
      <trkpt lat="45.60897" lon="4.6442">
        <ele>398.5</ele>
        <time>2021-06-26T12:30:31Z</time>
      </trkpt>
      <trkpt lat="45.60894" lon="4.64424">
        <ele>398.48</ele>
        <time>2021-06-26T12:30:34Z</time>
      </trkpt>
      <trkpt lat="45.60893" lon="4.64425">
        <ele>398.48</ele>
        <time>2021-06-26T12:30:35Z</time>
      </trkpt>
      <trkpt lat="45.60879" lon="4.64444">
        <ele>398.92</ele>
        <time>2021-06-26T12:30:50Z</time>
      </trkpt>
      <trkpt lat="45.60871" lon="4.64457">
        <ele>398.98</ele>
        <time>2021-06-26T12:31:00Z</time>
      </trkpt>
      <trkpt lat="45.6087" lon="4.64459">
        <ele>398.98</ele>
        <time>2021-06-26T12:31:01Z</time>
      </trkpt>
      <trkpt lat="45.60856" lon="4.64481">
        <ele>398.39</ele>
        <time>2021-06-26T12:31:18Z</time>
      </trkpt>
      <trkpt lat="45.60847" lon="4.64496">
        <ele>397.85</ele>
        <time>2021-06-26T12:31:31Z</time>
      </trkpt>
      <trkpt lat="45.60831" lon="4.64518">
        <ele>396.95</ele>
        <time>2021-06-26T12:31:47Z</time>
      </trkpt>
      <trkpt lat="45.60824" lon="4.64524">
        <ele>396.95</ele>
        <time>2021-06-26T12:31:54Z</time>
      </trkpt>
      <trkpt lat="45.60814" lon="4.64544">
        <ele>397.13</ele>
        <time>2021-06-26T12:32:10Z</time>
      </trkpt>
      <trkpt lat="45.60812" lon="4.64549">
        <ele>397.17</ele>
        <time>2021-06-26T12:32:14Z</time>
      </trkpt>
      <trkpt lat="45.60811" lon="4.64552">
        <ele>397.18</ele>
        <time>2021-06-26T12:32:15Z</time>
      </trkpt>
      <trkpt lat="45.6081" lon="4.64553">
        <ele>397.19</ele>
        <time>2021-06-26T12:32:16Z</time>
      </trkpt>
      <trkpt lat="45.60798" lon="4.64576">
        <ele>396.98</ele>
        <time>2021-06-26T12:32:31Z</time>
      </trkpt>
      <trkpt lat="45.60779" lon="4.64594">
        <ele>396.34</ele>
        <time>2021-06-26T12:32:47Z</time>
      </trkpt>
      <trkpt lat="45.60768" lon="4.64618">
        <ele>395.89</ele>
        <time>2021-06-26T12:33:03Z</time>
      </trkpt>
      <trkpt lat="45.60761" lon="4.64627">
        <ele>394.8</ele>
        <time>2021-06-26T12:33:20Z</time>
      </trkpt>
      <trkpt lat="45.6076" lon="4.64629">
        <ele>394.8</ele>
        <time>2021-06-26T12:33:21Z</time>
      </trkpt>
      <trkpt lat="45.60759" lon="4.64631">
        <ele>394.77</ele>
        <time>2021-06-26T12:33:23Z</time>
      </trkpt>
      <trkpt lat="45.60758" lon="4.64633">
        <ele>394.77</ele>
        <time>2021-06-26T12:33:24Z</time>
      </trkpt>
      <trkpt lat="45.60757" lon="4.64634">
        <ele>394.67</ele>
        <time>2021-06-26T12:33:25Z</time>
      </trkpt>
      <trkpt lat="45.60756" lon="4.64637">
        <ele>393.94</ele>
        <time>2021-06-26T12:33:40Z</time>
      </trkpt>
      <trkpt lat="45.60755" lon="4.64635">
        <ele>393.95</ele>
        <time>2021-06-26T12:33:41Z</time>
      </trkpt>
      <trkpt lat="45.60749" lon="4.64629">
        <ele>394.08</ele>
        <time>2021-06-26T12:33:46Z</time>
      </trkpt>
      <trkpt lat="45.60729" lon="4.64627">
        <ele>395.63</ele>
        <time>2021-06-26T12:34:03Z</time>
      </trkpt>
      <trkpt lat="45.60718" lon="4.64634">
        <ele>395.91</ele>
        <time>2021-06-26T12:34:16Z</time>
      </trkpt>
      <trkpt lat="45.60716" lon="4.64635">
        <ele>396</ele>
        <time>2021-06-26T12:34:17Z</time>
      </trkpt>
      <trkpt lat="45.60714" lon="4.64636">
        <ele>396.03</ele>
        <time>2021-06-26T12:34:19Z</time>
      </trkpt>
      <trkpt lat="45.60686" lon="4.64643">
        <ele>396.26</ele>
        <time>2021-06-26T12:34:42Z</time>
      </trkpt>
      <trkpt lat="45.6066" lon="4.6466">
        <ele>395.8</ele>
        <time>2021-06-26T12:35:04Z</time>
      </trkpt>
      <trkpt lat="45.60636" lon="4.64691">
        <ele>395.53</ele>
        <time>2021-06-26T12:35:26Z</time>
      </trkpt>
      <trkpt lat="45.60633" lon="4.64701">
        <ele>395.95</ele>
        <time>2021-06-26T12:35:36Z</time>
      </trkpt>
      <trkpt lat="45.60632" lon="4.64702">
        <ele>395.98</ele>
        <time>2021-06-26T12:35:37Z</time>
      </trkpt>
      <trkpt lat="45.60631" lon="4.64703">
        <ele>396</ele>
        <time>2021-06-26T12:35:38Z</time>
      </trkpt>
      <trkpt lat="45.60624" lon="4.64722">
        <ele>396.17</ele>
        <time>2021-06-26T12:35:51Z</time>
      </trkpt>
      <trkpt lat="45.60625" lon="4.64723">
        <ele>396.18</ele>
        <time>2021-06-26T12:35:52Z</time>
      </trkpt>
      <trkpt lat="45.60632" lon="4.64737">
        <ele>396.25</ele>
        <time>2021-06-26T12:36:07Z</time>
      </trkpt>
      <trkpt lat="45.60635" lon="4.64739">
        <ele>396.42</ele>
        <time>2021-06-26T12:36:19Z</time>
      </trkpt>
      <trkpt lat="45.6064" lon="4.64748">
        <ele>396.09</ele>
        <time>2021-06-26T12:36:27Z</time>
      </trkpt>
      <trkpt lat="45.60647" lon="4.64759">
        <ele>395.96</ele>
        <time>2021-06-26T12:36:42Z</time>
      </trkpt>
      <trkpt lat="45.60652" lon="4.6477">
        <ele>396</ele>
        <time>2021-06-26T12:37:00Z</time>
      </trkpt>
      <trkpt lat="45.60664" lon="4.64792">
        <ele>395.78</ele>
        <time>2021-06-26T12:37:18Z</time>
      </trkpt>
      <trkpt lat="45.60678" lon="4.64822">
        <ele>395.74</ele>
        <time>2021-06-26T12:37:40Z</time>
      </trkpt>
      <trkpt lat="45.60693" lon="4.64849">
        <ele>395.91</ele>
        <time>2021-06-26T12:38:01Z</time>
      </trkpt>
      <trkpt lat="45.60701" lon="4.64864">
        <ele>395.99</ele>
        <time>2021-06-26T12:38:15Z</time>
      </trkpt>
      <trkpt lat="45.60706" lon="4.64873">
        <ele>395.92</ele>
        <time>2021-06-26T12:38:22Z</time>
      </trkpt>
      <trkpt lat="45.60718" lon="4.64897">
        <ele>395.83</ele>
        <time>2021-06-26T12:38:39Z</time>
      </trkpt>
      <trkpt lat="45.6072" lon="4.649">
        <ele>395.83</ele>
        <time>2021-06-26T12:38:42Z</time>
      </trkpt>
      <trkpt lat="45.60721" lon="4.64901">
        <ele>395.83</ele>
        <time>2021-06-26T12:38:43Z</time>
      </trkpt>
      <trkpt lat="45.60721" lon="4.64903">
        <ele>395.83</ele>
        <time>2021-06-26T12:38:44Z</time>
      </trkpt>
      <trkpt lat="45.60729" lon="4.64913">
        <ele>395.86</ele>
        <time>2021-06-26T12:38:55Z</time>
      </trkpt>
      <trkpt lat="45.6073" lon="4.64913">
        <ele>395.88</ele>
        <time>2021-06-26T12:38:56Z</time>
      </trkpt>
      <trkpt lat="45.60731" lon="4.64912">
        <ele>395.91</ele>
        <time>2021-06-26T12:38:57Z</time>
      </trkpt>
      <trkpt lat="45.60732" lon="4.64912">
        <ele>395.97</ele>
        <time>2021-06-26T12:38:58Z</time>
      </trkpt>
      <trkpt lat="45.60733" lon="4.64911">
        <ele>396.01</ele>
        <time>2021-06-26T12:38:59Z</time>
      </trkpt>
      <trkpt lat="45.60734" lon="4.6491">
        <ele>396.03</ele>
        <time>2021-06-26T12:39:00Z</time>
      </trkpt>
      <trkpt lat="45.60742" lon="4.64901">
        <ele>396.35</ele>
        <time>2021-06-26T12:39:13Z</time>
      </trkpt>
      <trkpt lat="45.60742" lon="4.649">
        <ele>396.37</ele>
        <time>2021-06-26T12:39:14Z</time>
      </trkpt>
      <trkpt lat="45.60743" lon="4.64899">
        <ele>396.38</ele>
        <time>2021-06-26T12:39:15Z</time>
      </trkpt>
      <trkpt lat="45.60744" lon="4.64898">
        <ele>396.38</ele>
        <time>2021-06-26T12:39:16Z</time>
      </trkpt>
      <trkpt lat="45.60745" lon="4.64897">
        <ele>396.38</ele>
        <time>2021-06-26T12:39:17Z</time>
      </trkpt>
      <trkpt lat="45.60746" lon="4.64897">
        <ele>396.38</ele>
        <time>2021-06-26T12:39:18Z</time>
      </trkpt>
      <trkpt lat="45.60766" lon="4.64885">
        <ele>397.09</ele>
        <time>2021-06-26T12:39:35Z</time>
      </trkpt>
      <trkpt lat="45.60784" lon="4.64886">
        <ele>398.56</ele>
        <time>2021-06-26T12:39:51Z</time>
      </trkpt>
      <trkpt lat="45.60797" lon="4.64903">
        <ele>401</ele>
        <time>2021-06-26T12:40:07Z</time>
      </trkpt>
      <trkpt lat="45.60804" lon="4.64929">
        <ele>403.72</ele>
        <time>2021-06-26T12:40:24Z</time>
      </trkpt>
      <trkpt lat="45.60788" lon="4.64957">
        <ele>405.68</ele>
        <time>2021-06-26T12:40:42Z</time>
      </trkpt>
      <trkpt lat="45.60786" lon="4.64964">
        <ele>405.9</ele>
        <time>2021-06-26T12:41:00Z</time>
      </trkpt>
      <trkpt lat="45.60786" lon="4.64966">
        <ele>406.12</ele>
        <time>2021-06-26T12:41:18Z</time>
      </trkpt>
      <trkpt lat="45.60782" lon="4.64963">
        <ele>405.81</ele>
        <time>2021-06-26T12:55:15Z</time>
      </trkpt>
      <trkpt lat="45.60789" lon="4.64963">
        <ele>405.81</ele>
        <time>2021-06-26T12:55:36Z</time>
      </trkpt>
      <trkpt lat="45.60794" lon="4.64963">
        <ele>405.81</ele>
        <time>2021-06-26T12:56:00Z</time>
      </trkpt>
      <trkpt lat="45.60796" lon="4.64966">
        <ele>405.81</ele>
        <time>2021-06-26T12:56:10Z</time>
      </trkpt>
      <trkpt lat="45.60796" lon="4.64967">
        <ele>405.81</ele>
        <time>2021-06-26T12:56:11Z</time>
      </trkpt>
      <trkpt lat="45.60797" lon="4.64968">
        <ele>405.81</ele>
        <time>2021-06-26T12:56:12Z</time>
      </trkpt>
      <trkpt lat="45.60798" lon="4.64969">
        <ele>405.75</ele>
        <time>2021-06-26T12:56:13Z</time>
      </trkpt>
      <trkpt lat="45.60799" lon="4.6497">
        <ele>405.6</ele>
        <time>2021-06-26T12:56:14Z</time>
      </trkpt>
      <trkpt lat="45.608" lon="4.64971">
        <ele>405.47</ele>
        <time>2021-06-26T12:56:15Z</time>
      </trkpt>
      <trkpt lat="45.60815" lon="4.64991">
        <ele>406.82</ele>
        <time>2021-06-26T12:56:33Z</time>
      </trkpt>
      <trkpt lat="45.60819" lon="4.64992">
        <ele>407.48</ele>
        <time>2021-06-26T12:56:40Z</time>
      </trkpt>
      <trkpt lat="45.6082" lon="4.64992">
        <ele>407.56</ele>
        <time>2021-06-26T12:56:41Z</time>
      </trkpt>
      <trkpt lat="45.60821" lon="4.64993">
        <ele>407.64</ele>
        <time>2021-06-26T12:56:42Z</time>
      </trkpt>
      <trkpt lat="45.60822" lon="4.64994">
        <ele>407.72</ele>
        <time>2021-06-26T12:56:43Z</time>
      </trkpt>
      <trkpt lat="45.60823" lon="4.64995">
        <ele>407.78</ele>
        <time>2021-06-26T12:56:44Z</time>
      </trkpt>
      <trkpt lat="45.60826" lon="4.65002">
        <ele>408.45</ele>
        <time>2021-06-26T12:56:53Z</time>
      </trkpt>
      <trkpt lat="45.60827" lon="4.65003">
        <ele>408.46</ele>
        <time>2021-06-26T12:56:54Z</time>
      </trkpt>
      <trkpt lat="45.60827" lon="4.65004">
        <ele>408.48</ele>
        <time>2021-06-26T12:56:55Z</time>
      </trkpt>
      <trkpt lat="45.60829" lon="4.65006">
        <ele>408.5</ele>
        <time>2021-06-26T12:56:57Z</time>
      </trkpt>
      <trkpt lat="45.6083" lon="4.65007">
        <ele>408.54</ele>
        <time>2021-06-26T12:56:58Z</time>
      </trkpt>
      <trkpt lat="45.60852" lon="4.6502">
        <ele>409.89</ele>
        <time>2021-06-26T12:57:17Z</time>
      </trkpt>
      <trkpt lat="45.60866" lon="4.65028">
        <ele>411.23</ele>
        <time>2021-06-26T12:57:34Z</time>
      </trkpt>
      <trkpt lat="45.60868" lon="4.65029">
        <ele>411.31</ele>
        <time>2021-06-26T12:57:36Z</time>
      </trkpt>
      <trkpt lat="45.60869" lon="4.6503">
        <ele>411.33</ele>
        <time>2021-06-26T12:57:37Z</time>
      </trkpt>
      <trkpt lat="45.60881" lon="4.65038">
        <ele>411.85</ele>
        <time>2021-06-26T12:57:50Z</time>
      </trkpt>
      <trkpt lat="45.60891" lon="4.65044">
        <ele>412.65</ele>
        <time>2021-06-26T12:58:02Z</time>
      </trkpt>
      <trkpt lat="45.60894" lon="4.65046">
        <ele>412.78</ele>
        <time>2021-06-26T12:58:04Z</time>
      </trkpt>
      <trkpt lat="45.60895" lon="4.65047">
        <ele>412.81</ele>
        <time>2021-06-26T12:58:05Z</time>
      </trkpt>
      <trkpt lat="45.60917" lon="4.65053">
        <ele>414.13</ele>
        <time>2021-06-26T12:58:23Z</time>
      </trkpt>
      <trkpt lat="45.60921" lon="4.65051">
        <ele>414.44</ele>
        <time>2021-06-26T12:58:28Z</time>
      </trkpt>
      <trkpt lat="45.60922" lon="4.6505">
        <ele>414.51</ele>
        <time>2021-06-26T12:58:29Z</time>
      </trkpt>
      <trkpt lat="45.60923" lon="4.65052">
        <ele>415.4</ele>
        <time>2021-06-26T12:58:42Z</time>
      </trkpt>
      <trkpt lat="45.60924" lon="4.65051">
        <ele>415.4</ele>
        <time>2021-06-26T12:59:05Z</time>
      </trkpt>
      <trkpt lat="45.60929" lon="4.65051">
        <ele>415.57</ele>
        <time>2021-06-26T13:01:06Z</time>
      </trkpt>
      <trkpt lat="45.60949" lon="4.65045">
        <ele>416.76</ele>
        <time>2021-06-26T13:01:23Z</time>
      </trkpt>
      <trkpt lat="45.60971" lon="4.65048">
        <ele>418.81</ele>
        <time>2021-06-26T13:01:40Z</time>
      </trkpt>
      <trkpt lat="45.60979" lon="4.65057">
        <ele>419.21</ele>
        <time>2021-06-26T13:01:48Z</time>
      </trkpt>
      <trkpt lat="45.6098" lon="4.65057">
        <ele>419.26</ele>
        <time>2021-06-26T13:01:49Z</time>
      </trkpt>
      <trkpt lat="45.60989" lon="4.65058">
        <ele>419.69</ele>
        <time>2021-06-26T13:02:03Z</time>
      </trkpt>
      <trkpt lat="45.60989" lon="4.65062">
        <ele>419.71</ele>
        <time>2021-06-26T13:02:05Z</time>
      </trkpt>
      <trkpt lat="45.6099" lon="4.65063">
        <ele>419.72</ele>
        <time>2021-06-26T13:02:06Z</time>
      </trkpt>
      <trkpt lat="45.6099" lon="4.65064">
        <ele>419.73</ele>
        <time>2021-06-26T13:02:07Z</time>
      </trkpt>
      <trkpt lat="45.60991" lon="4.65065">
        <ele>419.75</ele>
        <time>2021-06-26T13:02:08Z</time>
      </trkpt>
      <trkpt lat="45.60992" lon="4.65066">
        <ele>419.76</ele>
        <time>2021-06-26T13:02:09Z</time>
      </trkpt>
      <trkpt lat="45.60996" lon="4.65068">
        <ele>419.92</ele>
        <time>2021-06-26T13:02:19Z</time>
      </trkpt>
      <trkpt lat="45.60997" lon="4.65069">
        <ele>419.92</ele>
        <time>2021-06-26T13:02:20Z</time>
      </trkpt>
      <trkpt lat="45.60998" lon="4.65069">
        <ele>419.92</ele>
        <time>2021-06-26T13:02:21Z</time>
      </trkpt>
      <trkpt lat="45.60999" lon="4.6507">
        <ele>419.92</ele>
        <time>2021-06-26T13:02:22Z</time>
      </trkpt>
      <trkpt lat="45.61" lon="4.65071">
        <ele>419.91</ele>
        <time>2021-06-26T13:02:23Z</time>
      </trkpt>
      <trkpt lat="45.61019" lon="4.65081">
        <ele>419.7</ele>
        <time>2021-06-26T13:02:41Z</time>
      </trkpt>
      <trkpt lat="45.61033" lon="4.65089">
        <ele>419.62</ele>
        <time>2021-06-26T13:02:54Z</time>
      </trkpt>
      <trkpt lat="45.61053" lon="4.65101">
        <ele>419.21</ele>
        <time>2021-06-26T13:03:11Z</time>
      </trkpt>
      <trkpt lat="45.6108" lon="4.65113">
        <ele>418.56</ele>
        <time>2021-06-26T13:03:31Z</time>
      </trkpt>
      <trkpt lat="45.611" lon="4.65125">
        <ele>417.7</ele>
        <time>2021-06-26T13:03:48Z</time>
      </trkpt>
      <trkpt lat="45.61118" lon="4.65132">
        <ele>416.92</ele>
        <time>2021-06-26T13:04:03Z</time>
      </trkpt>
      <trkpt lat="45.61138" lon="4.65138">
        <ele>416.55</ele>
        <time>2021-06-26T13:04:22Z</time>
      </trkpt>
      <trkpt lat="45.61141" lon="4.65134">
        <ele>416.45</ele>
        <time>2021-06-26T13:04:27Z</time>
      </trkpt>
      <trkpt lat="45.61142" lon="4.65133">
        <ele>416.45</ele>
        <time>2021-06-26T13:04:28Z</time>
      </trkpt>
      <trkpt lat="45.61143" lon="4.65132">
        <ele>416.43</ele>
        <time>2021-06-26T13:04:29Z</time>
      </trkpt>
      <trkpt lat="45.61144" lon="4.6513">
        <ele>416.41</ele>
        <time>2021-06-26T13:04:30Z</time>
      </trkpt>
      <trkpt lat="45.61145" lon="4.65129">
        <ele>416.41</ele>
        <time>2021-06-26T13:04:31Z</time>
      </trkpt>
      <trkpt lat="45.61146" lon="4.65128">
        <ele>416.4</ele>
        <time>2021-06-26T13:04:32Z</time>
      </trkpt>
      <trkpt lat="45.61147" lon="4.65128">
        <ele>416.38</ele>
        <time>2021-06-26T13:04:33Z</time>
      </trkpt>
      <trkpt lat="45.61148" lon="4.65127">
        <ele>416.37</ele>
        <time>2021-06-26T13:04:34Z</time>
      </trkpt>
      <trkpt lat="45.61149" lon="4.65126">
        <ele>416.37</ele>
        <time>2021-06-26T13:04:35Z</time>
      </trkpt>
      <trkpt lat="45.61163" lon="4.65116">
        <ele>417.11</ele>
        <time>2021-06-26T13:04:51Z</time>
      </trkpt>
      <trkpt lat="45.61179" lon="4.6512">
        <ele>416.97</ele>
        <time>2021-06-26T13:05:06Z</time>
      </trkpt>
      <trkpt lat="45.61197" lon="4.65126">
        <ele>416.71</ele>
        <time>2021-06-26T13:05:20Z</time>
      </trkpt>
      <trkpt lat="45.6121" lon="4.65126">
        <ele>416.68</ele>
        <time>2021-06-26T13:05:32Z</time>
      </trkpt>
      <trkpt lat="45.61211" lon="4.65127">
        <ele>416.68</ele>
        <time>2021-06-26T13:05:33Z</time>
      </trkpt>
      <trkpt lat="45.61212" lon="4.65127">
        <ele>416.68</ele>
        <time>2021-06-26T13:05:34Z</time>
      </trkpt>
      <trkpt lat="45.61213" lon="4.65127">
        <ele>416.68</ele>
        <time>2021-06-26T13:05:35Z</time>
      </trkpt>
      <trkpt lat="45.61215" lon="4.65127">
        <ele>416.68</ele>
        <time>2021-06-26T13:05:36Z</time>
      </trkpt>
      <trkpt lat="45.61216" lon="4.65127">
        <ele>416.66</ele>
        <time>2021-06-26T13:05:37Z</time>
      </trkpt>
      <trkpt lat="45.61234" lon="4.65126">
        <ele>416.56</ele>
        <time>2021-06-26T13:05:51Z</time>
      </trkpt>
      <trkpt lat="45.6125" lon="4.65127">
        <ele>416.29</ele>
        <time>2021-06-26T13:06:05Z</time>
      </trkpt>
      <trkpt lat="45.61269" lon="4.65125">
        <ele>415.99</ele>
        <time>2021-06-26T13:06:20Z</time>
      </trkpt>
      <trkpt lat="45.61271" lon="4.65124">
        <ele>415.85</ele>
        <time>2021-06-26T13:06:22Z</time>
      </trkpt>
      <trkpt lat="45.61273" lon="4.65124">
        <ele>415.83</ele>
        <time>2021-06-26T13:06:23Z</time>
      </trkpt>
      <trkpt lat="45.61274" lon="4.65124">
        <ele>415.81</ele>
        <time>2021-06-26T13:06:24Z</time>
      </trkpt>
      <trkpt lat="45.61276" lon="4.65123">
        <ele>415.81</ele>
        <time>2021-06-26T13:06:25Z</time>
      </trkpt>
      <trkpt lat="45.61277" lon="4.65123">
        <ele>415.81</ele>
        <time>2021-06-26T13:06:26Z</time>
      </trkpt>
      <trkpt lat="45.61288" lon="4.65119">
        <ele>415.68</ele>
        <time>2021-06-26T13:06:35Z</time>
      </trkpt>
      <trkpt lat="45.61294" lon="4.65111">
        <ele>415.59</ele>
        <time>2021-06-26T13:06:43Z</time>
      </trkpt>
      <trkpt lat="45.61296" lon="4.65111">
        <ele>415.6</ele>
        <time>2021-06-26T13:06:44Z</time>
      </trkpt>
      <trkpt lat="45.61306" lon="4.65112">
        <ele>415.47</ele>
        <time>2021-06-26T13:06:51Z</time>
      </trkpt>
      <trkpt lat="45.61307" lon="4.65112">
        <ele>415.45</ele>
        <time>2021-06-26T13:06:52Z</time>
      </trkpt>
      <trkpt lat="45.6131" lon="4.65111">
        <ele>415.34</ele>
        <time>2021-06-26T13:06:54Z</time>
      </trkpt>
      <trkpt lat="45.61312" lon="4.6511">
        <ele>415.31</ele>
        <time>2021-06-26T13:06:56Z</time>
      </trkpt>
      <trkpt lat="45.61316" lon="4.65107">
        <ele>414.88</ele>
        <time>2021-06-26T13:07:10Z</time>
      </trkpt>
      <trkpt lat="45.61322" lon="4.65105">
        <ele>414.68</ele>
        <time>2021-06-26T13:07:16Z</time>
      </trkpt>
      <trkpt lat="45.61323" lon="4.65105">
        <ele>414.65</ele>
        <time>2021-06-26T13:07:17Z</time>
      </trkpt>
      <trkpt lat="45.61325" lon="4.65105">
        <ele>414.6</ele>
        <time>2021-06-26T13:07:18Z</time>
      </trkpt>
      <trkpt lat="45.61327" lon="4.65105">
        <ele>414.6</ele>
        <time>2021-06-26T13:07:19Z</time>
      </trkpt>
      <trkpt lat="45.61328" lon="4.65105">
        <ele>414.56</ele>
        <time>2021-06-26T13:07:20Z</time>
      </trkpt>
      <trkpt lat="45.61352" lon="4.65099">
        <ele>414.05</ele>
        <time>2021-06-26T13:07:35Z</time>
      </trkpt>
      <trkpt lat="45.6137" lon="4.65097">
        <ele>413.85</ele>
        <time>2021-06-26T13:07:50Z</time>
      </trkpt>
      <trkpt lat="45.61393" lon="4.65096">
        <ele>413.52</ele>
        <time>2021-06-26T13:08:07Z</time>
      </trkpt>
      <trkpt lat="45.61405" lon="4.65096">
        <ele>413.21</ele>
        <time>2021-06-26T13:08:19Z</time>
      </trkpt>
      <trkpt lat="45.61404" lon="4.65102">
        <ele>413.11</ele>
        <time>2021-06-26T13:08:23Z</time>
      </trkpt>
      <trkpt lat="45.61404" lon="4.65104">
        <ele>413.06</ele>
        <time>2021-06-26T13:08:24Z</time>
      </trkpt>
      <trkpt lat="45.61404" lon="4.65105">
        <ele>413.02</ele>
        <time>2021-06-26T13:08:25Z</time>
      </trkpt>
      <trkpt lat="45.61404" lon="4.65117">
        <ele>412.51</ele>
        <time>2021-06-26T13:08:32Z</time>
      </trkpt>
      <trkpt lat="45.61404" lon="4.65119">
        <ele>412.42</ele>
        <time>2021-06-26T13:08:33Z</time>
      </trkpt>
      <trkpt lat="45.61404" lon="4.6513">
        <ele>411.84</ele>
        <time>2021-06-26T13:08:38Z</time>
      </trkpt>
      <trkpt lat="45.61404" lon="4.65132">
        <ele>411.74</ele>
        <time>2021-06-26T13:08:39Z</time>
      </trkpt>
      <trkpt lat="45.61404" lon="4.65134">
        <ele>411.65</ele>
        <time>2021-06-26T13:08:40Z</time>
      </trkpt>
      <trkpt lat="45.61407" lon="4.65152">
        <ele>410.97</ele>
        <time>2021-06-26T13:08:49Z</time>
      </trkpt>
      <trkpt lat="45.61406" lon="4.65154">
        <ele>410.87</ele>
        <time>2021-06-26T13:08:50Z</time>
      </trkpt>
      <trkpt lat="45.61407" lon="4.65157">
        <ele>410.78</ele>
        <time>2021-06-26T13:08:51Z</time>
      </trkpt>
      <trkpt lat="45.61407" lon="4.65158">
        <ele>410.69</ele>
        <time>2021-06-26T13:08:52Z</time>
      </trkpt>
      <trkpt lat="45.61407" lon="4.6516">
        <ele>410.63</ele>
        <time>2021-06-26T13:08:53Z</time>
      </trkpt>
      <trkpt lat="45.61411" lon="4.65194">
        <ele>409.35</ele>
        <time>2021-06-26T13:09:11Z</time>
      </trkpt>
      <trkpt lat="45.61415" lon="4.65224">
        <ele>408.03</ele>
        <time>2021-06-26T13:09:27Z</time>
      </trkpt>
      <trkpt lat="45.61419" lon="4.65252">
        <ele>407.25</ele>
        <time>2021-06-26T13:09:46Z</time>
      </trkpt>
      <trkpt lat="45.61419" lon="4.65254">
        <ele>407.11</ele>
        <time>2021-06-26T13:09:47Z</time>
      </trkpt>
      <trkpt lat="45.6142" lon="4.65255">
        <ele>407.11</ele>
        <time>2021-06-26T13:09:48Z</time>
      </trkpt>
      <trkpt lat="45.6142" lon="4.65257">
        <ele>407.07</ele>
        <time>2021-06-26T13:09:49Z</time>
      </trkpt>
      <trkpt lat="45.6142" lon="4.65259">
        <ele>407.03</ele>
        <time>2021-06-26T13:09:50Z</time>
      </trkpt>
      <trkpt lat="45.61408" lon="4.65289">
        <ele>405.89</ele>
        <time>2021-06-26T13:10:09Z</time>
      </trkpt>
      <trkpt lat="45.61393" lon="4.6531">
        <ele>405.11</ele>
        <time>2021-06-26T13:10:26Z</time>
      </trkpt>
      <trkpt lat="45.61391" lon="4.65313">
        <ele>405.04</ele>
        <time>2021-06-26T13:10:29Z</time>
      </trkpt>
      <trkpt lat="45.61389" lon="4.65314">
        <ele>405.02</ele>
        <time>2021-06-26T13:10:30Z</time>
      </trkpt>
      <trkpt lat="45.61372" lon="4.65334">
        <ele>404.46</ele>
        <time>2021-06-26T13:10:47Z</time>
      </trkpt>
      <trkpt lat="45.61354" lon="4.65359">
        <ele>404.09</ele>
        <time>2021-06-26T13:11:06Z</time>
      </trkpt>
      <trkpt lat="45.61332" lon="4.65387">
        <ele>403.26</ele>
        <time>2021-06-26T13:11:28Z</time>
      </trkpt>
      <trkpt lat="45.61314" lon="4.65411">
        <ele>402.95</ele>
        <time>2021-06-26T13:11:48Z</time>
      </trkpt>
      <trkpt lat="45.61296" lon="4.65434">
        <ele>402.46</ele>
        <time>2021-06-26T13:12:07Z</time>
      </trkpt>
      <trkpt lat="45.61284" lon="4.6545">
        <ele>401.46</ele>
        <time>2021-06-26T13:12:24Z</time>
      </trkpt>
      <trkpt lat="45.61276" lon="4.65469">
        <ele>400.45</ele>
        <time>2021-06-26T13:12:40Z</time>
      </trkpt>
      <trkpt lat="45.61275" lon="4.65471">
        <ele>400.37</ele>
        <time>2021-06-26T13:12:42Z</time>
      </trkpt>
      <trkpt lat="45.61274" lon="4.65475">
        <ele>400.32</ele>
        <time>2021-06-26T13:12:44Z</time>
      </trkpt>
      <trkpt lat="45.61273" lon="4.65477">
        <ele>400.28</ele>
        <time>2021-06-26T13:12:45Z</time>
      </trkpt>
      <trkpt lat="45.61262" lon="4.65506">
        <ele>400.03</ele>
        <time>2021-06-26T13:13:03Z</time>
      </trkpt>
      <trkpt lat="45.61261" lon="4.65512">
        <ele>399.96</ele>
        <time>2021-06-26T13:13:07Z</time>
      </trkpt>
      <trkpt lat="45.61262" lon="4.65519">
        <ele>399.75</ele>
        <time>2021-06-26T13:13:13Z</time>
      </trkpt>
      <trkpt lat="45.61281" lon="4.65534">
        <ele>398.08</ele>
        <time>2021-06-26T13:13:32Z</time>
      </trkpt>
      <trkpt lat="45.61296" lon="4.65548">
        <ele>397.43</ele>
        <time>2021-06-26T13:13:48Z</time>
      </trkpt>
      <trkpt lat="45.61315" lon="4.65559">
        <ele>396.69</ele>
        <time>2021-06-26T13:14:04Z</time>
      </trkpt>
      <trkpt lat="45.61329" lon="4.65566">
        <ele>396.08</ele>
        <time>2021-06-26T13:14:17Z</time>
      </trkpt>
      <trkpt lat="45.61348" lon="4.65575">
        <ele>394.71</ele>
        <time>2021-06-26T13:14:35Z</time>
      </trkpt>
      <trkpt lat="45.61355" lon="4.65578">
        <ele>394.32</ele>
        <time>2021-06-26T13:14:42Z</time>
      </trkpt>
      <trkpt lat="45.61357" lon="4.65579">
        <ele>394.27</ele>
        <time>2021-06-26T13:14:44Z</time>
      </trkpt>
      <trkpt lat="45.61381" lon="4.6559">
        <ele>393.77</ele>
        <time>2021-06-26T13:15:04Z</time>
      </trkpt>
      <trkpt lat="45.61399" lon="4.65594">
        <ele>392.85</ele>
        <time>2021-06-26T13:15:18Z</time>
      </trkpt>
      <trkpt lat="45.61418" lon="4.65599">
        <ele>392.02</ele>
        <time>2021-06-26T13:15:32Z</time>
      </trkpt>
      <trkpt lat="45.61436" lon="4.65606">
        <ele>391.05</ele>
        <time>2021-06-26T13:15:49Z</time>
      </trkpt>
      <trkpt lat="45.61445" lon="4.65607">
        <ele>390.92</ele>
        <time>2021-06-26T13:16:05Z</time>
      </trkpt>
      <trkpt lat="45.61463" lon="4.65609">
        <ele>393.34</ele>
        <time>2021-06-26T13:16:27Z</time>
      </trkpt>
      <trkpt lat="45.61471" lon="4.65612">
        <ele>396.51</ele>
        <time>2021-06-26T13:16:46Z</time>
      </trkpt>
      <trkpt lat="45.61485" lon="4.65617">
        <ele>399.6</ele>
        <time>2021-06-26T13:16:59Z</time>
      </trkpt>
      <trkpt lat="45.61506" lon="4.65618">
        <ele>401.33</ele>
        <time>2021-06-26T13:17:16Z</time>
      </trkpt>
      <trkpt lat="45.61509" lon="4.65622">
        <ele>401.51</ele>
        <time>2021-06-26T13:17:35Z</time>
      </trkpt>
      <trkpt lat="45.61509" lon="4.65623">
        <ele>401.51</ele>
        <time>2021-06-26T13:17:36Z</time>
      </trkpt>
      <trkpt lat="45.61506" lon="4.65644">
        <ele>401.42</ele>
        <time>2021-06-26T13:17:50Z</time>
      </trkpt>
      <trkpt lat="45.61505" lon="4.65648">
        <ele>401.41</ele>
        <time>2021-06-26T13:17:52Z</time>
      </trkpt>
      <trkpt lat="45.61505" lon="4.65649">
        <ele>401.44</ele>
        <time>2021-06-26T13:17:53Z</time>
      </trkpt>
      <trkpt lat="45.61506" lon="4.6565">
        <ele>401.48</ele>
        <time>2021-06-26T13:17:54Z</time>
      </trkpt>
      <trkpt lat="45.61507" lon="4.65651">
        <ele>401.51</ele>
        <time>2021-06-26T13:17:55Z</time>
      </trkpt>
      <trkpt lat="45.61508" lon="4.65652">
        <ele>401.54</ele>
        <time>2021-06-26T13:17:56Z</time>
      </trkpt>
      <trkpt lat="45.6151" lon="4.65652">
        <ele>401.55</ele>
        <time>2021-06-26T13:17:57Z</time>
      </trkpt>
      <trkpt lat="45.61511" lon="4.65652">
        <ele>401.56</ele>
        <time>2021-06-26T13:17:58Z</time>
      </trkpt>
      <trkpt lat="45.61512" lon="4.65652">
        <ele>401.56</ele>
        <time>2021-06-26T13:17:59Z</time>
      </trkpt>
      <trkpt lat="45.61514" lon="4.65652">
        <ele>401.56</ele>
        <time>2021-06-26T13:18:00Z</time>
      </trkpt>
      <trkpt lat="45.61533" lon="4.65648">
        <ele>401.54</ele>
        <time>2021-06-26T13:18:18Z</time>
      </trkpt>
      <trkpt lat="45.6154" lon="4.65648">
        <ele>401.74</ele>
        <time>2021-06-26T13:18:32Z</time>
      </trkpt>
      <trkpt lat="45.61546" lon="4.65648">
        <ele>400.83</ele>
        <time>2021-06-26T13:18:48Z</time>
      </trkpt>
      <trkpt lat="45.61557" lon="4.65648">
        <ele>400.89</ele>
        <time>2021-06-26T13:18:59Z</time>
      </trkpt>
      <trkpt lat="45.61559" lon="4.65648">
        <ele>400.79</ele>
        <time>2021-06-26T13:19:00Z</time>
      </trkpt>
      <trkpt lat="45.6156" lon="4.65647">
        <ele>400.65</ele>
        <time>2021-06-26T13:19:01Z</time>
      </trkpt>
      <trkpt lat="45.61569" lon="4.65652">
        <ele>399.9</ele>
        <time>2021-06-26T13:19:12Z</time>
      </trkpt>
      <trkpt lat="45.61575" lon="4.65654">
        <ele>399.39</ele>
        <time>2021-06-26T13:19:17Z</time>
      </trkpt>
      <trkpt lat="45.61583" lon="4.6566">
        <ele>398.32</ele>
        <time>2021-06-26T13:19:27Z</time>
      </trkpt>
      <trkpt lat="45.61585" lon="4.6566">
        <ele>398.28</ele>
        <time>2021-06-26T13:19:28Z</time>
      </trkpt>
      <trkpt lat="45.61588" lon="4.65662">
        <ele>398.08</ele>
        <time>2021-06-26T13:19:31Z</time>
      </trkpt>
      <trkpt lat="45.61589" lon="4.65662">
        <ele>398.03</ele>
        <time>2021-06-26T13:19:32Z</time>
      </trkpt>
      <trkpt lat="45.61591" lon="4.65662">
        <ele>398</ele>
        <time>2021-06-26T13:19:33Z</time>
      </trkpt>
      <trkpt lat="45.61596" lon="4.65663">
        <ele>397.68</ele>
        <time>2021-06-26T13:19:38Z</time>
      </trkpt>
      <trkpt lat="45.61598" lon="4.65663">
        <ele>397.63</ele>
        <time>2021-06-26T13:19:39Z</time>
      </trkpt>
      <trkpt lat="45.61599" lon="4.65663">
        <ele>397.59</ele>
        <time>2021-06-26T13:19:40Z</time>
      </trkpt>
      <trkpt lat="45.616" lon="4.65661">
        <ele>397.45</ele>
        <time>2021-06-26T13:19:42Z</time>
      </trkpt>
      <trkpt lat="45.61608" lon="4.65649">
        <ele>396.8</ele>
        <time>2021-06-26T13:19:53Z</time>
      </trkpt>
      <trkpt lat="45.61608" lon="4.65648">
        <ele>396.76</ele>
        <time>2021-06-26T13:19:54Z</time>
      </trkpt>
      <trkpt lat="45.61616" lon="4.65651">
        <ele>396.23</ele>
        <time>2021-06-26T13:20:08Z</time>
      </trkpt>
      <trkpt lat="45.61621" lon="4.65657">
        <ele>395.64</ele>
        <time>2021-06-26T13:20:15Z</time>
      </trkpt>
      <trkpt lat="45.6163" lon="4.65667">
        <ele>393.93</ele>
        <time>2021-06-26T13:20:29Z</time>
      </trkpt>
      <trkpt lat="45.61635" lon="4.65677">
        <ele>392.46</ele>
        <time>2021-06-26T13:20:43Z</time>
      </trkpt>
      <trkpt lat="45.61638" lon="4.65692">
        <ele>389.41</ele>
        <time>2021-06-26T13:20:58Z</time>
      </trkpt>
      <trkpt lat="45.61646" lon="4.65712">
        <ele>386.32</ele>
        <time>2021-06-26T13:21:13Z</time>
      </trkpt>
      <trkpt lat="45.61646" lon="4.65721">
        <ele>384.81</ele>
        <time>2021-06-26T13:21:33Z</time>
      </trkpt>
      <trkpt lat="45.61648" lon="4.65735">
        <ele>384.16</ele>
        <time>2021-06-26T13:21:47Z</time>
      </trkpt>
      <trkpt lat="45.61658" lon="4.65738">
        <ele>383.77</ele>
        <time>2021-06-26T13:22:01Z</time>
      </trkpt>
      <trkpt lat="45.61674" lon="4.65747">
        <ele>382.93</ele>
        <time>2021-06-26T13:22:16Z</time>
      </trkpt>
      <trkpt lat="45.61677" lon="4.65765">
        <ele>382.73</ele>
        <time>2021-06-26T13:22:29Z</time>
      </trkpt>
      <trkpt lat="45.61677" lon="4.65775">
        <ele>383.3</ele>
        <time>2021-06-26T13:22:39Z</time>
      </trkpt>
      <trkpt lat="45.61677" lon="4.65777">
        <ele>383.32</ele>
        <time>2021-06-26T13:22:40Z</time>
      </trkpt>
      <trkpt lat="45.61677" lon="4.65778">
        <ele>383.35</ele>
        <time>2021-06-26T13:22:41Z</time>
      </trkpt>
      <trkpt lat="45.61676" lon="4.65783">
        <ele>383.89</ele>
        <time>2021-06-26T13:22:47Z</time>
      </trkpt>
      <trkpt lat="45.61673" lon="4.65793">
        <ele>384.25</ele>
        <time>2021-06-26T13:22:53Z</time>
      </trkpt>
      <trkpt lat="45.61673" lon="4.65795">
        <ele>384.35</ele>
        <time>2021-06-26T13:22:54Z</time>
      </trkpt>
      <trkpt lat="45.61673" lon="4.65797">
        <ele>384.48</ele>
        <time>2021-06-26T13:22:55Z</time>
      </trkpt>
      <trkpt lat="45.61673" lon="4.65799">
        <ele>384.6</ele>
        <time>2021-06-26T13:22:56Z</time>
      </trkpt>
      <trkpt lat="45.61673" lon="4.658">
        <ele>384.71</ele>
        <time>2021-06-26T13:22:57Z</time>
      </trkpt>
      <trkpt lat="45.61671" lon="4.65805">
        <ele>385.09</ele>
        <time>2021-06-26T13:23:00Z</time>
      </trkpt>
      <trkpt lat="45.61671" lon="4.65807">
        <ele>385.2</ele>
        <time>2021-06-26T13:23:01Z</time>
      </trkpt>
      <trkpt lat="45.6167" lon="4.65821">
        <ele>386.49</ele>
        <time>2021-06-26T13:23:14Z</time>
      </trkpt>
      <trkpt lat="45.61673" lon="4.65833">
        <ele>387.36</ele>
        <time>2021-06-26T13:23:27Z</time>
      </trkpt>
      <trkpt lat="45.61672" lon="4.65857">
        <ele>388.24</ele>
        <time>2021-06-26T13:23:44Z</time>
      </trkpt>
      <trkpt lat="45.61672" lon="4.65859">
        <ele>388.27</ele>
        <time>2021-06-26T13:23:45Z</time>
      </trkpt>
      <trkpt lat="45.6167" lon="4.65886">
        <ele>388.79</ele>
        <time>2021-06-26T13:24:00Z</time>
      </trkpt>
      <trkpt lat="45.61675" lon="4.65907">
        <ele>389.18</ele>
        <time>2021-06-26T13:24:16Z</time>
      </trkpt>
      <trkpt lat="45.61673" lon="4.65932">
        <ele>389.32</ele>
        <time>2021-06-26T13:24:30Z</time>
      </trkpt>
      <trkpt lat="45.61674" lon="4.65946">
        <ele>388.86</ele>
        <time>2021-06-26T13:24:38Z</time>
      </trkpt>
      <trkpt lat="45.61674" lon="4.65948">
        <ele>388.79</ele>
        <time>2021-06-26T13:24:39Z</time>
      </trkpt>
      <trkpt lat="45.61676" lon="4.65952">
        <ele>388.58</ele>
        <time>2021-06-26T13:24:42Z</time>
      </trkpt>
      <trkpt lat="45.61682" lon="4.65987">
        <ele>386.99</ele>
        <time>2021-06-26T13:25:01Z</time>
      </trkpt>
      <trkpt lat="45.61682" lon="4.6599">
        <ele>386.83</ele>
        <time>2021-06-26T13:25:03Z</time>
      </trkpt>
      <trkpt lat="45.61683" lon="4.65994">
        <ele>386.02</ele>
        <time>2021-06-26T13:25:22Z</time>
      </trkpt>
      <trkpt lat="45.61683" lon="4.65998">
        <ele>385.84</ele>
        <time>2021-06-26T13:25:30Z</time>
      </trkpt>
      <trkpt lat="45.61684" lon="4.65999">
        <ele>385.8</ele>
        <time>2021-06-26T13:25:31Z</time>
      </trkpt>
      <trkpt lat="45.61686" lon="4.66004">
        <ele>385.6</ele>
        <time>2021-06-26T13:25:35Z</time>
      </trkpt>
      <trkpt lat="45.61687" lon="4.66006">
        <ele>385.55</ele>
        <time>2021-06-26T13:25:36Z</time>
      </trkpt>
      <trkpt lat="45.61689" lon="4.66013">
        <ele>385.27</ele>
        <time>2021-06-26T13:25:44Z</time>
      </trkpt>
      <trkpt lat="45.61695" lon="4.6604">
        <ele>384.26</ele>
        <time>2021-06-26T13:26:02Z</time>
      </trkpt>
      <trkpt lat="45.61704" lon="4.66068">
        <ele>382.57</ele>
        <time>2021-06-26T13:26:19Z</time>
      </trkpt>
      <trkpt lat="45.61714" lon="4.66094">
        <ele>381.58</ele>
        <time>2021-06-26T13:26:34Z</time>
      </trkpt>
      <trkpt lat="45.61721" lon="4.66129">
        <ele>380.68</ele>
        <time>2021-06-26T13:26:54Z</time>
      </trkpt>
      <trkpt lat="45.61726" lon="4.66153">
        <ele>379.87</ele>
        <time>2021-06-26T13:27:10Z</time>
      </trkpt>
      <trkpt lat="45.61729" lon="4.66175">
        <ele>379.46</ele>
        <time>2021-06-26T13:27:33Z</time>
      </trkpt>
      <trkpt lat="45.61734" lon="4.66195">
        <ele>379.99</ele>
        <time>2021-06-26T13:27:52Z</time>
      </trkpt>
      <trkpt lat="45.61737" lon="4.66199">
        <ele>379.74</ele>
        <time>2021-06-26T13:28:14Z</time>
      </trkpt>
      <trkpt lat="45.61743" lon="4.66196">
        <ele>379.72</ele>
        <time>2021-06-26T13:28:22Z</time>
      </trkpt>
      <trkpt lat="45.61745" lon="4.66197">
        <ele>379.72</ele>
        <time>2021-06-26T13:28:23Z</time>
      </trkpt>
      <trkpt lat="45.61765" lon="4.66204">
        <ele>381.42</ele>
        <time>2021-06-26T13:28:42Z</time>
      </trkpt>
      <trkpt lat="45.61789" lon="4.66212">
        <ele>383.76</ele>
        <time>2021-06-26T13:29:02Z</time>
      </trkpt>
      <trkpt lat="45.61797" lon="4.66217">
        <ele>384.08</ele>
        <time>2021-06-26T13:29:16Z</time>
      </trkpt>
      <trkpt lat="45.61795" lon="4.66218">
        <ele>383.8</ele>
        <time>2021-06-26T13:29:34Z</time>
      </trkpt>
      <trkpt lat="45.61793" lon="4.66221">
        <ele>383.77</ele>
        <time>2021-06-26T13:29:37Z</time>
      </trkpt>
      <trkpt lat="45.61793" lon="4.66223">
        <ele>383.74</ele>
        <time>2021-06-26T13:29:38Z</time>
      </trkpt>
      <trkpt lat="45.61793" lon="4.66225">
        <ele>383.7</ele>
        <time>2021-06-26T13:29:39Z</time>
      </trkpt>
      <trkpt lat="45.61793" lon="4.66226">
        <ele>383.66</ele>
        <time>2021-06-26T13:29:40Z</time>
      </trkpt>
      <trkpt lat="45.61792" lon="4.66228">
        <ele>383.62</ele>
        <time>2021-06-26T13:29:41Z</time>
      </trkpt>
      <trkpt lat="45.61792" lon="4.6623">
        <ele>383.56</ele>
        <time>2021-06-26T13:29:42Z</time>
      </trkpt>
      <trkpt lat="45.61791" lon="4.66231">
        <ele>383.51</ele>
        <time>2021-06-26T13:29:43Z</time>
      </trkpt>
      <trkpt lat="45.6179" lon="4.66233">
        <ele>383.45</ele>
        <time>2021-06-26T13:29:44Z</time>
      </trkpt>
      <trkpt lat="45.6179" lon="4.66235">
        <ele>383.41</ele>
        <time>2021-06-26T13:29:45Z</time>
      </trkpt>
      <trkpt lat="45.61789" lon="4.66236">
        <ele>383.37</ele>
        <time>2021-06-26T13:29:46Z</time>
      </trkpt>
      <trkpt lat="45.61789" lon="4.66238">
        <ele>383.31</ele>
        <time>2021-06-26T13:29:47Z</time>
      </trkpt>
      <trkpt lat="45.61789" lon="4.66239">
        <ele>383.26</ele>
        <time>2021-06-26T13:29:48Z</time>
      </trkpt>
      <trkpt lat="45.61781" lon="4.66262">
        <ele>382.25</ele>
        <time>2021-06-26T13:30:04Z</time>
      </trkpt>
      <trkpt lat="45.61781" lon="4.66263">
        <ele>381.77</ele>
        <time>2021-06-26T13:30:24Z</time>
      </trkpt>
      <trkpt lat="45.6178" lon="4.66264">
        <ele>381.57</ele>
        <time>2021-06-26T13:30:36Z</time>
      </trkpt>
      <trkpt lat="45.6177" lon="4.66288">
        <ele>380.93</ele>
        <time>2021-06-26T13:30:56Z</time>
      </trkpt>
      <trkpt lat="45.61767" lon="4.66299">
        <ele>380.77</ele>
        <time>2021-06-26T13:31:03Z</time>
      </trkpt>
      <trkpt lat="45.61764" lon="4.66308">
        <ele>380.5</ele>
        <time>2021-06-26T13:31:10Z</time>
      </trkpt>
      <trkpt lat="45.61764" lon="4.6631">
        <ele>380.48</ele>
        <time>2021-06-26T13:31:11Z</time>
      </trkpt>
      <trkpt lat="45.61763" lon="4.66312">
        <ele>380.47</ele>
        <time>2021-06-26T13:31:12Z</time>
      </trkpt>
      <trkpt lat="45.61763" lon="4.66313">
        <ele>380.46</ele>
        <time>2021-06-26T13:31:13Z</time>
      </trkpt>
      <trkpt lat="45.61762" lon="4.66314">
        <ele>380.45</ele>
        <time>2021-06-26T13:31:14Z</time>
      </trkpt>
      <trkpt lat="45.61761" lon="4.66316">
        <ele>380.41</ele>
        <time>2021-06-26T13:31:15Z</time>
      </trkpt>
      <trkpt lat="45.61761" lon="4.66318">
        <ele>380.34</ele>
        <time>2021-06-26T13:31:16Z</time>
      </trkpt>
      <trkpt lat="45.61761" lon="4.6632">
        <ele>380.28</ele>
        <time>2021-06-26T13:31:17Z</time>
      </trkpt>
      <trkpt lat="45.6176" lon="4.66321">
        <ele>380.2</ele>
        <time>2021-06-26T13:31:18Z</time>
      </trkpt>
      <trkpt lat="45.61748" lon="4.66348">
        <ele>379.28</ele>
        <time>2021-06-26T13:31:36Z</time>
      </trkpt>
      <trkpt lat="45.6174" lon="4.66368">
        <ele>378.72</ele>
        <time>2021-06-26T13:31:51Z</time>
      </trkpt>
      <trkpt lat="45.61739" lon="4.66369">
        <ele>378.72</ele>
        <time>2021-06-26T13:31:52Z</time>
      </trkpt>
      <trkpt lat="45.61738" lon="4.66371">
        <ele>378.71</ele>
        <time>2021-06-26T13:31:53Z</time>
      </trkpt>
      <trkpt lat="45.61738" lon="4.66372">
        <ele>378.69</ele>
        <time>2021-06-26T13:31:54Z</time>
      </trkpt>
      <trkpt lat="45.61737" lon="4.66374">
        <ele>378.65</ele>
        <time>2021-06-26T13:31:55Z</time>
      </trkpt>
      <trkpt lat="45.61737" lon="4.66376">
        <ele>378.64</ele>
        <time>2021-06-26T13:31:56Z</time>
      </trkpt>
      <trkpt lat="45.61737" lon="4.66378">
        <ele>378.63</ele>
        <time>2021-06-26T13:31:57Z</time>
      </trkpt>
      <trkpt lat="45.61737" lon="4.6638">
        <ele>378.61</ele>
        <time>2021-06-26T13:31:58Z</time>
      </trkpt>
      <trkpt lat="45.61736" lon="4.66382">
        <ele>378.57</ele>
        <time>2021-06-26T13:31:59Z</time>
      </trkpt>
      <trkpt lat="45.61736" lon="4.66384">
        <ele>378.53</ele>
        <time>2021-06-26T13:32:00Z</time>
      </trkpt>
      <trkpt lat="45.61735" lon="4.66386">
        <ele>378.49</ele>
        <time>2021-06-26T13:32:01Z</time>
      </trkpt>
      <trkpt lat="45.61735" lon="4.66387">
        <ele>378.46</ele>
        <time>2021-06-26T13:32:02Z</time>
      </trkpt>
      <trkpt lat="45.61731" lon="4.66417">
        <ele>377.93</ele>
        <time>2021-06-26T13:32:19Z</time>
      </trkpt>
      <trkpt lat="45.61727" lon="4.6644">
        <ele>377.37</ele>
        <time>2021-06-26T13:32:34Z</time>
      </trkpt>
      <trkpt lat="45.61726" lon="4.66442">
        <ele>377.32</ele>
        <time>2021-06-26T13:32:35Z</time>
      </trkpt>
      <trkpt lat="45.61726" lon="4.66443">
        <ele>377.28</ele>
        <time>2021-06-26T13:32:36Z</time>
      </trkpt>
      <trkpt lat="45.61726" lon="4.66445">
        <ele>377.26</ele>
        <time>2021-06-26T13:32:37Z</time>
      </trkpt>
      <trkpt lat="45.61726" lon="4.66447">
        <ele>377.25</ele>
        <time>2021-06-26T13:32:38Z</time>
      </trkpt>
      <trkpt lat="45.61717" lon="4.66468">
        <ele>377.2</ele>
        <time>2021-06-26T13:32:53Z</time>
      </trkpt>
      <trkpt lat="45.61707" lon="4.66494">
        <ele>376.01</ele>
        <time>2021-06-26T13:33:10Z</time>
      </trkpt>
      <trkpt lat="45.61701" lon="4.66522">
        <ele>375.29</ele>
        <time>2021-06-26T13:33:26Z</time>
      </trkpt>
      <trkpt lat="45.61703" lon="4.6655">
        <ele>374.28</ele>
        <time>2021-06-26T13:33:46Z</time>
      </trkpt>
      <trkpt lat="45.61713" lon="4.66572">
        <ele>372.8</ele>
        <time>2021-06-26T13:34:03Z</time>
      </trkpt>
      <trkpt lat="45.61721" lon="4.66592">
        <ele>371.79</ele>
        <time>2021-06-26T13:34:21Z</time>
      </trkpt>
      <trkpt lat="45.61731" lon="4.66621">
        <ele>369.28</ele>
        <time>2021-06-26T13:34:39Z</time>
      </trkpt>
      <trkpt lat="45.6174" lon="4.66648">
        <ele>367.91</ele>
        <time>2021-06-26T13:34:58Z</time>
      </trkpt>
      <trkpt lat="45.61741" lon="4.66656">
        <ele>367.44</ele>
        <time>2021-06-26T13:35:04Z</time>
      </trkpt>
      <trkpt lat="45.61742" lon="4.66657">
        <ele>367.35</ele>
        <time>2021-06-26T13:35:05Z</time>
      </trkpt>
      <trkpt lat="45.61742" lon="4.66659">
        <ele>367.27</ele>
        <time>2021-06-26T13:35:06Z</time>
      </trkpt>
      <trkpt lat="45.61743" lon="4.66661">
        <ele>367.19</ele>
        <time>2021-06-26T13:35:07Z</time>
      </trkpt>
      <trkpt lat="45.61743" lon="4.66662">
        <ele>367.11</ele>
        <time>2021-06-26T13:35:08Z</time>
      </trkpt>
      <trkpt lat="45.61743" lon="4.66664">
        <ele>367.04</ele>
        <time>2021-06-26T13:35:09Z</time>
      </trkpt>
      <trkpt lat="45.61743" lon="4.66669">
        <ele>366.7</ele>
        <time>2021-06-26T13:35:27Z</time>
      </trkpt>
      <trkpt lat="45.61743" lon="4.6667">
        <ele>366.63</ele>
        <time>2021-06-26T13:35:43Z</time>
      </trkpt>
      <trkpt lat="45.618" lon="4.66764">
        <ele>348.6</ele>
        <time>2021-06-26T13:37:49Z</time>
      </trkpt>
      <trkpt lat="45.61814" lon="4.66768">
        <ele>345.86</ele>
        <time>2021-06-26T13:38:04Z</time>
      </trkpt>
      <trkpt lat="45.61817" lon="4.6677">
        <ele>345.28</ele>
        <time>2021-06-26T13:38:07Z</time>
      </trkpt>
      <trkpt lat="45.61822" lon="4.66771">
        <ele>343.47</ele>
        <time>2021-06-26T13:38:21Z</time>
      </trkpt>
      <trkpt lat="45.61829" lon="4.66777">
        <ele>343.26</ele>
        <time>2021-06-26T13:38:29Z</time>
      </trkpt>
      <trkpt lat="45.61831" lon="4.66778">
        <ele>343.26</ele>
        <time>2021-06-26T13:38:30Z</time>
      </trkpt>
      <trkpt lat="45.61832" lon="4.66779">
        <ele>343.27</ele>
        <time>2021-06-26T13:38:31Z</time>
      </trkpt>
      <trkpt lat="45.61833" lon="4.6678">
        <ele>343.3</ele>
        <time>2021-06-26T13:38:32Z</time>
      </trkpt>
      <trkpt lat="45.61834" lon="4.66781">
        <ele>343.35</ele>
        <time>2021-06-26T13:38:33Z</time>
      </trkpt>
      <trkpt lat="45.61835" lon="4.66782">
        <ele>343.4</ele>
        <time>2021-06-26T13:38:34Z</time>
      </trkpt>
      <trkpt lat="45.61836" lon="4.66782">
        <ele>343.46</ele>
        <time>2021-06-26T13:38:35Z</time>
      </trkpt>
      <trkpt lat="45.61837" lon="4.66783">
        <ele>343.5</ele>
        <time>2021-06-26T13:38:36Z</time>
      </trkpt>
      <trkpt lat="45.61848" lon="4.6679">
        <ele>342.67</ele>
        <time>2021-06-26T13:38:49Z</time>
      </trkpt>
      <trkpt lat="45.61864" lon="4.66798">
        <ele>341.95</ele>
        <time>2021-06-26T13:39:05Z</time>
      </trkpt>
      <trkpt lat="45.61857" lon="4.66815">
        <ele>342.39</ele>
        <time>2021-06-26T13:39:20Z</time>
      </trkpt>
      <trkpt lat="45.61853" lon="4.66818">
        <ele>342.22</ele>
        <time>2021-06-26T13:39:27Z</time>
      </trkpt>
      <trkpt lat="45.61839" lon="4.66825">
        <ele>342.04</ele>
        <time>2021-06-26T13:39:40Z</time>
      </trkpt>
      <trkpt lat="45.61838" lon="4.66825">
        <ele>342.03</ele>
        <time>2021-06-26T13:39:41Z</time>
      </trkpt>
      <trkpt lat="45.61819" lon="4.6683">
        <ele>341.78</ele>
        <time>2021-06-26T13:39:57Z</time>
      </trkpt>
      <trkpt lat="45.6181" lon="4.66835">
        <ele>341.81</ele>
        <time>2021-06-26T13:40:08Z</time>
      </trkpt>
      <trkpt lat="45.61808" lon="4.66833">
        <ele>341.7</ele>
        <time>2021-06-26T13:40:22Z</time>
      </trkpt>
      <trkpt lat="45.61806" lon="4.6684">
        <ele>343.12</ele>
        <time>2021-06-26T13:40:35Z</time>
      </trkpt>
      <trkpt lat="45.61806" lon="4.66841">
        <ele>341.79</ele>
        <time>2021-06-26T13:40:59Z</time>
      </trkpt>
      <trkpt lat="45.61775" lon="4.66842">
        <ele>339.1</ele>
        <time>2021-06-26T13:57:27Z</time>
      </trkpt>
      <trkpt lat="45.6176" lon="4.66847">
        <ele>339.55</ele>
        <time>2021-06-26T13:57:42Z</time>
      </trkpt>
      <trkpt lat="45.61738" lon="4.66855">
        <ele>338.72</ele>
        <time>2021-06-26T13:58:03Z</time>
      </trkpt>
      <trkpt lat="45.61722" lon="4.66867">
        <ele>339.03</ele>
        <time>2021-06-26T13:58:19Z</time>
      </trkpt>
      <trkpt lat="45.61711" lon="4.66879">
        <ele>340.05</ele>
        <time>2021-06-26T13:58:29Z</time>
      </trkpt>
      <trkpt lat="45.61699" lon="4.66893">
        <ele>339.59</ele>
        <time>2021-06-26T13:58:45Z</time>
      </trkpt>
      <trkpt lat="45.61699" lon="4.66894">
        <ele>339.56</ele>
        <time>2021-06-26T13:58:46Z</time>
      </trkpt>
      <trkpt lat="45.6169" lon="4.66906">
        <ele>339.1</ele>
        <time>2021-06-26T13:58:55Z</time>
      </trkpt>
      <trkpt lat="45.61675" lon="4.66917">
        <ele>338.68</ele>
        <time>2021-06-26T13:59:10Z</time>
      </trkpt>
      <trkpt lat="45.61664" lon="4.66945">
        <ele>338.01</ele>
        <time>2021-06-26T13:59:27Z</time>
      </trkpt>
      <trkpt lat="45.61654" lon="4.66964">
        <ele>337.95</ele>
        <time>2021-06-26T13:59:41Z</time>
      </trkpt>
      <trkpt lat="45.61647" lon="4.66978">
        <ele>337.78</ele>
        <time>2021-06-26T13:59:54Z</time>
      </trkpt>
      <trkpt lat="45.61646" lon="4.6698">
        <ele>337.8</ele>
        <time>2021-06-26T13:59:55Z</time>
      </trkpt>
      <trkpt lat="45.61645" lon="4.66981">
        <ele>337.82</ele>
        <time>2021-06-26T13:59:56Z</time>
      </trkpt>
      <trkpt lat="45.61644" lon="4.66982">
        <ele>337.83</ele>
        <time>2021-06-26T13:59:57Z</time>
      </trkpt>
      <trkpt lat="45.61643" lon="4.66983">
        <ele>337.83</ele>
        <time>2021-06-26T13:59:58Z</time>
      </trkpt>
      <trkpt lat="45.61642" lon="4.66984">
        <ele>337.79</ele>
        <time>2021-06-26T13:59:59Z</time>
      </trkpt>
      <trkpt lat="45.61628" lon="4.66994">
        <ele>337.57</ele>
        <time>2021-06-26T14:00:11Z</time>
      </trkpt>
      <trkpt lat="45.61621" lon="4.67">
        <ele>337.59</ele>
        <time>2021-06-26T14:00:18Z</time>
      </trkpt>
      <trkpt lat="45.61615" lon="4.67019">
        <ele>337.81</ele>
        <time>2021-06-26T14:00:31Z</time>
      </trkpt>
      <trkpt lat="45.61638" lon="4.67025">
        <ele>338.55</ele>
        <time>2021-06-26T14:00:49Z</time>
      </trkpt>
      <trkpt lat="45.61644" lon="4.6702">
        <ele>339.36</ele>
        <time>2021-06-26T14:01:06Z</time>
      </trkpt>
      <trkpt lat="45.61643" lon="4.67021">
        <ele>339.33</ele>
        <time>2021-06-26T14:01:29Z</time>
      </trkpt>
    </trkseg>
  </trk>
</gpx>